SAA21P LOWW-FACT
Flight info
| Callsign | SAA21P |
|---|---|
| Flight time | 10h 55m |
| Altitude | 35000 |
| Route | ARSIN DCT KUSIB/N0465F340 DCT KATTI/N0466F350 DCT BUMOK DCT SOBRI DCT NELDA/N0468F360 DCT VARIG/N0470F350 M707 ABU/N0415F240 V800 IZD/N0473F350 M727 DEKTU/N0477F370 UG727 DIR UA607 FL UA403 MOROS UM998 AMLOD/N0471F380 UV30 KSA/N0473F370 UT943 ITNEL/N0469F390 UT943 IMVEX/N0467F380 UT943 UNLOK/N0465F390 UT943 VEDRY/N0462F400 UN185 KEBAT R987 ERDAS ERDAS1C |
| Aircraft | A346/H-SDE2E3FGHIJ3J4J5M1RWXY/LB1D1 |
Departure
| Time | 2026-04-20 05:59 |
|---|---|
| Airport | Vienna International Airport (LOWW) |
Arrival
| Time | 2026-04-20 16:54 |
|---|---|
| Airport | Cape Town International Airport (FACT) |
| Time | Latitude | Longitude | Altitude | Speed | Heading |
|---|---|---|---|---|---|
| 2026-04-20 05:40 | 48.11424 | 16.57200 | 629 ft | 0 kts | 206° |
| 2026-04-20 05:51 | 48.11420 | 16.57197 | 628 ft | 2 kts | 205° |
| 2026-04-20 05:51 | 48.11402 | 16.57184 | 628 ft | 4 kts | 208° |
| 2026-04-20 05:52 | 48.11382 | 16.57165 | 625 ft | 5 kts | 218° |
| 2026-04-20 05:52 | 48.11348 | 16.57104 | 625 ft | 10 kts | 233° |
| 2026-04-20 05:52 | 48.11297 | 16.57076 | 621 ft | 10 kts | 167° |
| 2026-04-20 05:52 | 48.11247 | 16.57152 | 630 ft | 12 kts | 117° |
| 2026-04-20 05:53 | 48.11210 | 16.57278 | 623 ft | 14 kts | 112° |
| 2026-04-20 05:53 | 48.11169 | 16.57423 | 632 ft | 16 kts | 114° |
| 2026-04-20 05:53 | 48.11120 | 16.57581 | 622 ft | 17 kts | 116° |
| 2026-04-20 05:53 | 48.11062 | 16.57745 | 629 ft | 18 kts | 122° |
| 2026-04-20 05:54 | 48.10975 | 16.57898 | 632 ft | 20 kts | 125° |
| 2026-04-20 05:54 | 48.10851 | 16.58017 | 630 ft | 24 kts | 161° |
| 2026-04-20 05:54 | 48.10668 | 16.58093 | 627 ft | 30 kts | 164° |
| 2026-04-20 05:54 | 48.10449 | 16.58190 | 629 ft | 34 kts | 163° |
| 2026-04-20 05:55 | 48.10241 | 16.58282 | 628 ft | 27 kts | 163° |
| 2026-04-20 05:55 | 48.10062 | 16.58252 | 629 ft | 26 kts | 200° |
| 2026-04-20 05:55 | 48.09893 | 16.58278 | 627 ft | 25 kts | 164° |
| 2026-04-20 05:55 | 48.09726 | 16.58360 | 631 ft | 26 kts | 160° |
| 2026-04-20 05:56 | 48.09549 | 16.58426 | 625 ft | 26 kts | 166° |
| 2026-04-20 05:56 | 48.09373 | 16.58505 | 632 ft | 27 kts | 163° |
| 2026-04-20 05:56 | 48.09187 | 16.58582 | 628 ft | 29 kts | 166° |
| 2026-04-20 05:56 | 48.08987 | 16.58661 | 630 ft | 30 kts | 164° |
| 2026-04-20 05:57 | 48.08818 | 16.58801 | 630 ft | 26 kts | 122° |
| 2026-04-20 05:57 | 48.08840 | 16.59046 | 626 ft | 25 kts | 51° |
| 2026-04-20 05:57 | 48.08968 | 16.59087 | 624 ft | 0 kts | 345° |
| 2026-04-20 05:58 | 48.09047 | 16.59052 | 625 ft | 36 kts | 342° |
| 2026-04-20 05:58 | 48.09463 | 16.58885 | 629 ft | 87 kts | 346° |
| 2026-04-20 05:58 | 48.10192 | 16.58566 | 630 ft | 130 kts | 343° |
| 2026-04-20 05:58 | 48.11190 | 16.58143 | 632 ft | 166 kts | 343° |
| 2026-04-20 05:59 | 48.12369 | 16.57616 | 786 ft | 182 kts | 342° |
| 2026-04-20 05:59 | 48.13594 | 16.57064 | 1187 ft | 182 kts | 340° |
| 2026-04-20 05:59 | 48.14580 | 16.56030 | 1889 ft | 170 kts | 302° |
| 2026-04-20 05:59 | 48.14869 | 16.54355 | 2511 ft | 173 kts | 271° |
| 2026-04-20 06:00 | 48.14387 | 16.52589 | 2740 ft | 202 kts | 233° |
| 2026-04-20 06:00 | 48.13144 | 16.51341 | 2967 ft | 226 kts | 214° |
| 2026-04-20 06:00 | 48.11702 | 16.50231 | 3264 ft | 241 kts | 213° |
| 2026-04-20 06:00 | 48.10165 | 16.49064 | 3561 ft | 255 kts | 213° |
| 2026-04-20 06:01 | 48.08521 | 16.47854 | 3896 ft | 272 kts | 205° |
| 2026-04-20 06:01 | 48.06622 | 16.47322 | 4448 ft | 285 kts | 183° |
| 2026-04-20 06:01 | 48.04640 | 16.47595 | 5175 ft | 287 kts | 176° |
| 2026-04-20 06:01 | 48.02651 | 16.48026 | 5835 ft | 291 kts | 176° |
| 2026-04-20 06:02 | 48.00638 | 16.48460 | 6485 ft | 294 kts | 176° |
| 2026-04-20 06:02 | 47.98605 | 16.48861 | 7134 ft | 296 kts | 179° |
| 2026-04-20 06:02 | 47.96579 | 16.48708 | 7772 ft | 289 kts | 200° |
| 2026-04-20 06:02 | 47.94748 | 16.47604 | 8483 ft | 282 kts | 213° |
| 2026-04-20 06:03 | 47.93023 | 16.46216 | 9193 ft | 283 kts | 214° |
| 2026-04-20 06:03 | 47.91288 | 16.44796 | 9772 ft | 286 kts | 214° |
| 2026-04-20 06:03 | 47.89544 | 16.43425 | 9983 ft | 289 kts | 209° |
| 2026-04-20 06:03 | 47.87578 | 16.42680 | 9962 ft | 298 kts | 187° |
| 2026-04-20 06:04 | 47.85461 | 16.43035 | 10213 ft | 313 kts | 170° |
| 2026-04-20 06:04 | 47.83338 | 16.43887 | 10727 ft | 322 kts | 168° |
| 2026-04-20 06:04 | 47.81129 | 16.44813 | 11002 ft | 337 kts | 168° |
| 2026-04-20 06:04 | 47.78824 | 16.45763 | 11276 ft | 352 kts | 168° |
| 2026-04-20 06:05 | 47.76412 | 16.46738 | 11552 ft | 367 kts | 168° |
| 2026-04-20 06:05 | 47.73895 | 16.47741 | 11824 ft | 381 kts | 168° |
| 2026-04-20 06:05 | 47.71293 | 16.48771 | 12182 ft | 392 kts | 168° |
| 2026-04-20 06:05 | 47.68644 | 16.49818 | 12828 ft | 395 kts | 168° |
| 2026-04-20 06:06 | 47.66004 | 16.51003 | 13523 ft | 401 kts | 159° |
| 2026-04-20 06:06 | 47.63673 | 16.53331 | 14095 ft | 410 kts | 137° |
| 2026-04-20 06:06 | 47.62029 | 16.56810 | 14704 ft | 416 kts | 116° |
| 2026-04-20 06:06 | 47.60886 | 16.60763 | 15331 ft | 418 kts | 113° |
| 2026-04-20 06:07 | 47.59779 | 16.64785 | 15829 ft | 423 kts | 113° |
| 2026-04-20 06:07 | 47.58569 | 16.68782 | 16311 ft | 427 kts | 122° |
| 2026-04-20 06:07 | 47.56647 | 16.72097 | 16795 ft | 424 kts | 145° |
| 2026-04-20 06:07 | 47.54088 | 16.74162 | 17374 ft | 417 kts | 166° |
| 2026-04-20 06:08 | 47.51269 | 16.74840 | 17942 ft | 409 kts | 185° |
| 2026-04-20 06:08 | 47.48439 | 16.74514 | 18497 ft | 408 kts | 190° |
| 2026-04-20 06:08 | 47.45598 | 16.74100 | 18945 ft | 412 kts | 190° |
| 2026-04-20 06:08 | 47.42726 | 16.73695 | 19391 ft | 416 kts | 189° |
| 2026-04-20 06:09 | 47.39838 | 16.73311 | 19834 ft | 419 kts | 190° |
| 2026-04-20 06:09 | 47.36918 | 16.72936 | 20275 ft | 423 kts | 190° |
| 2026-04-20 06:09 | 47.34015 | 16.72569 | 20731 ft | 426 kts | 190° |
| 2026-04-20 06:09 | 47.31054 | 16.72201 | 21211 ft | 428 kts | 189° |
| 2026-04-20 06:10 | 47.28074 | 16.71836 | 21677 ft | 431 kts | 189° |
| 2026-04-20 06:10 | 47.25078 | 16.71472 | 22134 ft | 434 kts | 189° |
| 2026-04-20 06:10 | 47.22061 | 16.71107 | 22601 ft | 436 kts | 189° |
| 2026-04-20 06:10 | 47.19026 | 16.70740 | 23002 ft | 439 kts | 189° |
| 2026-04-20 06:11 | 47.15971 | 16.70372 | 23428 ft | 442 kts | 189° |
| 2026-04-20 06:11 | 47.12904 | 16.70003 | 23870 ft | 443 kts | 189° |
| 2026-04-20 06:11 | 47.09832 | 16.69636 | 24279 ft | 444 kts | 189° |
| 2026-04-20 06:11 | 47.06744 | 16.69267 | 24652 ft | 446 kts | 189° |
| 2026-04-20 06:12 | 47.03636 | 16.68896 | 25010 ft | 449 kts | 189° |
| 2026-04-20 06:12 | 47.00517 | 16.68523 | 25360 ft | 452 kts | 189° |
| 2026-04-20 06:12 | 46.97377 | 16.68151 | 25681 ft | 454 kts | 189° |
| 2026-04-20 06:12 | 46.94221 | 16.67776 | 26010 ft | 457 kts | 190° |
| 2026-04-20 06:13 | 46.91041 | 16.67397 | 26346 ft | 459 kts | 190° |
| 2026-04-20 06:13 | 46.87846 | 16.67017 | 26677 ft | 462 kts | 190° |
| 2026-04-20 06:13 | 46.84632 | 16.66635 | 27015 ft | 465 kts | 190° |
| 2026-04-20 06:13 | 46.81399 | 16.66252 | 27335 ft | 467 kts | 190° |
| 2026-04-20 06:14 | 46.78153 | 16.65868 | 27644 ft | 469 kts | 190° |
| 2026-04-20 06:14 | 46.74885 | 16.65484 | 27948 ft | 472 kts | 190° |
| 2026-04-20 06:14 | 46.71658 | 16.65104 | 28341 ft | 472 kts | 190° |
| 2026-04-20 06:14 | 46.68335 | 16.64713 | 28819 ft | 471 kts | 190° |
| 2026-04-20 06:15 | 46.65073 | 16.64331 | 29300 ft | 470 kts | 190° |
| 2026-04-20 06:15 | 46.61858 | 16.63955 | 29733 ft | 470 kts | 191° |
| 2026-04-20 06:15 | 46.58596 | 16.63572 | 30157 ft | 470 kts | 191° |
| 2026-04-20 06:15 | 46.55338 | 16.63192 | 30480 ft | 470 kts | 191° |
| 2026-04-20 06:16 | 46.52074 | 16.62809 | 30744 ft | 471 kts | 191° |
| 2026-04-20 06:16 | 46.48758 | 16.62418 | 31043 ft | 472 kts | 191° |
| 2026-04-20 06:16 | 46.45530 | 16.62039 | 31377 ft | 472 kts | 191° |
| 2026-04-20 06:16 | 46.42210 | 16.61651 | 31745 ft | 472 kts | 191° |
| 2026-04-20 06:17 | 46.38987 | 16.61275 | 32066 ft | 471 kts | 191° |
| 2026-04-20 06:17 | 46.35722 | 16.60897 | 32368 ft | 472 kts | 191° |
| 2026-04-20 06:17 | 46.32442 | 16.60516 | 32617 ft | 473 kts | 191° |
| 2026-04-20 06:17 | 46.29159 | 16.60133 | 32873 ft | 474 kts | 191° |
| 2026-04-20 06:18 | 46.25869 | 16.59750 | 33166 ft | 474 kts | 191° |
| 2026-04-20 06:18 | 46.22579 | 16.59364 | 33497 ft | 474 kts | 191° |
| 2026-04-20 06:18 | 46.19290 | 16.58983 | 33780 ft | 474 kts | 191° |
| 2026-04-20 06:18 | 46.15995 | 16.58603 | 33984 ft | 476 kts | 191° |
| 2026-04-20 06:19 | 46.12684 | 16.58222 | 34114 ft | 479 kts | 191° |
| 2026-04-20 06:19 | 46.09352 | 16.57836 | 34239 ft | 482 kts | 191° |
| 2026-04-20 06:19 | 46.06009 | 16.57450 | 34446 ft | 482 kts | 191° |
| 2026-04-20 06:19 | 46.02667 | 16.57065 | 34676 ft | 483 kts | 190° |
| 2026-04-20 06:20 | 45.99323 | 16.56681 | 34901 ft | 483 kts | 190° |
| 2026-04-20 06:20 | 45.95978 | 16.56298 | 35037 ft | 484 kts | 190° |
| 2026-04-20 06:20 | 45.90384 | 16.55658 | 35055 ft | 485 kts | 190° |
| 2026-04-20 06:21 | 45.83650 | 16.54891 | 35057 ft | 486 kts | 190° |
| 2026-04-20 06:21 | 45.76913 | 16.54124 | 35060 ft | 486 kts | 190° |
| 2026-04-20 06:22 | 45.70160 | 16.53356 | 35049 ft | 487 kts | 190° |
| 2026-04-20 06:22 | 45.63404 | 16.52589 | 35056 ft | 487 kts | 190° |
| 2026-04-20 06:23 | 45.56637 | 16.51824 | 35054 ft | 488 kts | 190° |
| 2026-04-20 06:23 | 45.49873 | 16.51061 | 35051 ft | 488 kts | 190° |
| 2026-04-20 06:24 | 45.43156 | 16.50305 | 35052 ft | 488 kts | 190° |
| 2026-04-20 06:24 | 45.36404 | 16.49543 | 35028 ft | 485 kts | 190° |
| 2026-04-20 06:25 | 45.29667 | 16.48792 | 35047 ft | 486 kts | 190° |
| 2026-04-20 06:25 | 45.22931 | 16.48044 | 35049 ft | 486 kts | 190° |
| 2026-04-20 06:26 | 45.16190 | 16.47294 | 35023 ft | 486 kts | 190° |
| 2026-04-20 06:26 | 45.09481 | 16.46237 | 35040 ft | 486 kts | 192° |
| 2026-04-20 06:27 | 45.02771 | 16.45111 | 35045 ft | 486 kts | 192° |
| 2026-04-20 06:27 | 44.96058 | 16.43994 | 35022 ft | 486 kts | 192° |
| 2026-04-20 06:28 | 44.89337 | 16.42876 | 35041 ft | 487 kts | 192° |
| 2026-04-20 06:28 | 44.82599 | 16.41760 | 35037 ft | 487 kts | 192° |
| 2026-04-20 06:29 | 44.75865 | 16.40646 | 35024 ft | 488 kts | 192° |
| 2026-04-20 06:29 | 44.69114 | 16.39531 | 35035 ft | 489 kts | 192° |
| 2026-04-20 06:30 | 44.62359 | 16.38420 | 35045 ft | 489 kts | 192° |
| 2026-04-20 06:30 | 44.55598 | 16.37307 | 35019 ft | 490 kts | 192° |
| 2026-04-20 06:31 | 44.48822 | 16.36195 | 35031 ft | 490 kts | 192° |
| 2026-04-20 06:31 | 44.42069 | 16.35092 | 35032 ft | 488 kts | 192° |
| 2026-04-20 06:32 | 44.35358 | 16.33998 | 35026 ft | 489 kts | 192° |
| 2026-04-20 06:32 | 44.28601 | 16.32900 | 35035 ft | 489 kts | 192° |
| 2026-04-20 06:33 | 44.21847 | 16.31805 | 35036 ft | 489 kts | 192° |
| 2026-04-20 06:33 | 44.15084 | 16.30707 | 35023 ft | 489 kts | 192° |
| 2026-04-20 06:34 | 44.08317 | 16.29614 | 35033 ft | 490 kts | 191° |
| 2026-04-20 06:35 | 43.98178 | 16.27981 | 35031 ft | 490 kts | 191° |
| 2026-04-20 06:35 | 43.91398 | 16.26892 | 35032 ft | 490 kts | 191° |
| 2026-04-20 06:36 | 43.84628 | 16.25809 | 35034 ft | 490 kts | 191° |
| 2026-04-20 06:36 | 43.77857 | 16.24724 | 35032 ft | 490 kts | 191° |
| 2026-04-20 06:37 | 43.71088 | 16.23645 | 35031 ft | 489 kts | 191° |
| 2026-04-20 06:37 | 43.64320 | 16.22568 | 35032 ft | 489 kts | 191° |
| 2026-04-20 06:38 | 43.57552 | 16.21494 | 35061 ft | 490 kts | 191° |
| 2026-04-20 06:38 | 43.50833 | 16.20429 | 35059 ft | 490 kts | 191° |
| 2026-04-20 06:39 | 43.44055 | 16.19357 | 35042 ft | 490 kts | 191° |
| 2026-04-20 06:39 | 43.37283 | 16.18287 | 35047 ft | 490 kts | 191° |
| 2026-04-20 06:40 | 43.30509 | 16.17222 | 35041 ft | 490 kts | 191° |
| 2026-04-20 06:40 | 43.23736 | 16.16158 | 35030 ft | 490 kts | 191° |
| 2026-04-20 06:41 | 43.16970 | 16.15099 | 35035 ft | 490 kts | 191° |
| 2026-04-20 06:41 | 43.10202 | 16.14041 | 35036 ft | 490 kts | 191° |
| 2026-04-20 06:42 | 43.03427 | 16.12983 | 35033 ft | 489 kts | 191° |
| 2026-04-20 06:42 | 42.96680 | 16.11934 | 35043 ft | 489 kts | 191° |
| 2026-04-20 06:43 | 42.89912 | 16.10884 | 35043 ft | 489 kts | 191° |
| 2026-04-20 06:43 | 42.83154 | 16.09837 | 35036 ft | 488 kts | 191° |
| 2026-04-20 06:44 | 42.76401 | 16.08795 | 35044 ft | 488 kts | 191° |
| 2026-04-20 06:44 | 42.69649 | 16.07756 | 35042 ft | 488 kts | 191° |
| 2026-04-20 06:45 | 42.62898 | 16.06719 | 35034 ft | 488 kts | 191° |
| 2026-04-20 06:45 | 42.56152 | 16.05686 | 35038 ft | 488 kts | 191° |
| 2026-04-20 06:46 | 42.49411 | 16.04567 | 35021 ft | 487 kts | 193° |
| 2026-04-20 06:46 | 42.42733 | 16.03105 | 35034 ft | 486 kts | 193° |
| 2026-04-20 06:47 | 42.36052 | 16.01654 | 35036 ft | 486 kts | 193° |
| 2026-04-20 06:47 | 42.29414 | 16.00218 | 35018 ft | 486 kts | 193° |
| 2026-04-20 06:48 | 42.22739 | 15.98778 | 35028 ft | 486 kts | 193° |
| 2026-04-20 06:48 | 42.16056 | 15.97339 | 35033 ft | 487 kts | 193° |
| 2026-04-20 06:49 | 42.09367 | 15.95902 | 35020 ft | 486 kts | 193° |
| 2026-04-20 06:49 | 42.02688 | 15.94471 | 35031 ft | 486 kts | 193° |
| 2026-04-20 06:50 | 41.96019 | 15.93044 | 35085 ft | 486 kts | 193° |
| 2026-04-20 06:50 | 41.89347 | 15.91620 | 35069 ft | 485 kts | 193° |
| 2026-04-20 06:51 | 41.82675 | 15.90200 | 35084 ft | 485 kts | 193° |
| 2026-04-20 06:51 | 41.76005 | 15.88782 | 35076 ft | 485 kts | 193° |
| 2026-04-20 06:52 | 41.69342 | 15.87368 | 35028 ft | 485 kts | 193° |
| 2026-04-20 06:52 | 41.62671 | 15.85956 | 35027 ft | 485 kts | 193° |
| 2026-04-20 06:53 | 41.55998 | 15.84546 | 35023 ft | 485 kts | 193° |
| 2026-04-20 06:53 | 41.49332 | 15.83142 | 35023 ft | 485 kts | 193° |
| 2026-04-20 06:54 | 41.42663 | 15.81741 | 35034 ft | 485 kts | 194° |
| 2026-04-20 06:54 | 41.35994 | 15.80340 | 35037 ft | 485 kts | 193° |
| 2026-04-20 06:55 | 41.29326 | 15.78943 | 35031 ft | 485 kts | 193° |
| 2026-04-20 06:55 | 41.22658 | 15.77550 | 35041 ft | 485 kts | 193° |
| 2026-04-20 06:56 | 41.15986 | 15.76159 | 35048 ft | 485 kts | 193° |
| 2026-04-20 06:56 | 41.09316 | 15.74771 | 35042 ft | 485 kts | 194° |
| 2026-04-20 06:57 | 41.02680 | 15.73394 | 35057 ft | 486 kts | 194° |
| 2026-04-20 06:57 | 40.96007 | 15.72011 | 35059 ft | 486 kts | 193° |
| 2026-04-20 06:58 | 40.89329 | 15.70632 | 35057 ft | 486 kts | 194° |
| 2026-04-20 06:58 | 40.82652 | 15.69259 | 35073 ft | 485 kts | 194° |
| 2026-04-20 06:59 | 40.75979 | 15.67883 | 35083 ft | 485 kts | 194° |
| 2026-04-20 06:59 | 40.69360 | 15.66246 | 35065 ft | 482 kts | 199° |
| 2026-04-20 07:00 | 40.62880 | 15.64055 | 35078 ft | 480 kts | 200° |
| 2026-04-20 07:00 | 40.56404 | 15.61853 | 35097 ft | 480 kts | 200° |
| 2026-04-20 07:01 | 40.49929 | 15.59661 | 35096 ft | 480 kts | 200° |
| 2026-04-20 07:01 | 40.43425 | 15.57472 | 35094 ft | 484 kts | 201° |
| 2026-04-20 07:02 | 40.36902 | 15.55276 | 35107 ft | 484 kts | 201° |
| 2026-04-20 07:02 | 40.30369 | 15.53083 | 35097 ft | 484 kts | 201° |
| 2026-04-20 07:03 | 40.23882 | 15.50913 | 35101 ft | 484 kts | 201° |
| 2026-04-20 07:03 | 40.17356 | 15.48730 | 35106 ft | 484 kts | 201° |
| 2026-04-20 07:04 | 40.10832 | 15.46555 | 35103 ft | 484 kts | 201° |
| 2026-04-20 07:04 | 40.04313 | 15.44390 | 35090 ft | 482 kts | 201° |
| 2026-04-20 07:05 | 39.97828 | 15.42234 | 35087 ft | 481 kts | 201° |
| 2026-04-20 07:05 | 39.91331 | 15.40078 | 35096 ft | 482 kts | 201° |
| 2026-04-20 07:06 | 39.84838 | 15.37929 | 35093 ft | 482 kts | 201° |
| 2026-04-20 07:06 | 39.78342 | 15.35783 | 35101 ft | 482 kts | 201° |
| 2026-04-20 07:07 | 39.71841 | 15.33640 | 35100 ft | 482 kts | 201° |
| 2026-04-20 07:07 | 39.65341 | 15.31502 | 35099 ft | 482 kts | 201° |
| 2026-04-20 07:08 | 39.58840 | 15.29368 | 35099 ft | 482 kts | 201° |
| 2026-04-20 07:08 | 39.52340 | 15.27241 | 35089 ft | 482 kts | 201° |
| 2026-04-20 07:09 | 39.45839 | 15.25114 | 35085 ft | 482 kts | 201° |
| 2026-04-20 07:09 | 39.39334 | 15.22990 | 35096 ft | 482 kts | 201° |
| 2026-04-20 07:10 | 39.32817 | 15.20868 | 35093 ft | 483 kts | 201° |
| 2026-04-20 07:10 | 39.27404 | 15.19108 | 35100 ft | 483 kts | 201° |
| 2026-04-20 07:11 | 39.20889 | 15.16993 | 35088 ft | 483 kts | 201° |
| 2026-04-20 07:11 | 39.14358 | 15.14882 | 35097 ft | 484 kts | 201° |
| 2026-04-20 07:12 | 39.06777 | 15.12420 | 35101 ft | 483 kts | 201° |
| 2026-04-20 07:12 | 39.01339 | 15.10556 | 35091 ft | 483 kts | 202° |
| 2026-04-20 07:13 | 38.94859 | 15.08323 | 35100 ft | 483 kts | 201° |
| 2026-04-20 07:13 | 38.88408 | 15.06117 | 35100 ft | 483 kts | 201° |
| 2026-04-20 07:14 | 38.81912 | 15.03905 | 35075 ft | 483 kts | 201° |
| 2026-04-20 07:14 | 38.75409 | 15.01693 | 35101 ft | 483 kts | 201° |
| 2026-04-20 07:15 | 38.68919 | 14.99496 | 35098 ft | 483 kts | 201° |
| 2026-04-20 07:15 | 38.62417 | 14.97299 | 35101 ft | 483 kts | 201° |
| 2026-04-20 07:16 | 38.55920 | 14.95104 | 35099 ft | 483 kts | 201° |
| 2026-04-20 07:16 | 38.49421 | 14.92915 | 35101 ft | 483 kts | 201° |
| 2026-04-20 07:17 | 38.42936 | 14.90734 | 35094 ft | 482 kts | 201° |
| 2026-04-20 07:17 | 38.36454 | 14.88557 | 35089 ft | 481 kts | 200° |
| 2026-04-20 07:18 | 38.29974 | 14.86386 | 35101 ft | 481 kts | 200° |
| 2026-04-20 07:18 | 38.23496 | 14.84221 | 35102 ft | 481 kts | 200° |
| 2026-04-20 07:19 | 38.17016 | 14.82058 | 35080 ft | 481 kts | 200° |
| 2026-04-20 07:19 | 38.10534 | 14.79895 | 35093 ft | 482 kts | 200° |
| 2026-04-20 07:20 | 38.04085 | 14.77751 | 35097 ft | 482 kts | 200° |
| 2026-04-20 07:20 | 37.97600 | 14.75599 | 35104 ft | 482 kts | 200° |
| 2026-04-20 07:21 | 37.91118 | 14.73449 | 35102 ft | 481 kts | 200° |
| 2026-04-20 07:21 | 37.84636 | 14.71305 | 35101 ft | 481 kts | 200° |
| 2026-04-20 07:22 | 37.78157 | 14.69168 | 35103 ft | 481 kts | 200° |
| 2026-04-20 07:22 | 37.71690 | 14.67035 | 35073 ft | 480 kts | 200° |
| 2026-04-20 07:23 | 37.65217 | 14.64904 | 35095 ft | 481 kts | 200° |
| 2026-04-20 07:23 | 37.58746 | 14.62780 | 35099 ft | 480 kts | 200° |
| 2026-04-20 07:24 | 37.52272 | 14.60658 | 35094 ft | 480 kts | 200° |
| 2026-04-20 07:24 | 37.45804 | 14.58542 | 35096 ft | 480 kts | 200° |
| 2026-04-20 07:25 | 37.39331 | 14.56428 | 35095 ft | 480 kts | 200° |
| 2026-04-20 07:25 | 37.32859 | 14.54318 | 35100 ft | 480 kts | 200° |
| 2026-04-20 07:26 | 37.26391 | 14.52212 | 35102 ft | 481 kts | 200° |
| 2026-04-20 07:26 | 37.19953 | 14.50120 | 35111 ft | 481 kts | 199° |
| 2026-04-20 07:27 | 37.13466 | 14.48018 | 35112 ft | 481 kts | 199° |
| 2026-04-20 07:27 | 37.06981 | 14.45921 | 35113 ft | 481 kts | 199° |
| 2026-04-20 07:28 | 37.00502 | 14.43825 | 35106 ft | 481 kts | 199° |
| 2026-04-20 07:28 | 36.94032 | 14.41745 | 35113 ft | 481 kts | 199° |
| 2026-04-20 07:29 | 36.87553 | 14.39661 | 35116 ft | 481 kts | 199° |
| 2026-04-20 07:29 | 36.81013 | 14.37818 | 35113 ft | 482 kts | 197° |
| 2026-04-20 07:30 | 36.74460 | 14.36044 | 35118 ft | 482 kts | 197° |
| 2026-04-20 07:30 | 36.67906 | 14.34278 | 35123 ft | 482 kts | 197° |
| 2026-04-20 07:31 | 36.61351 | 14.32515 | 35123 ft | 482 kts | 197° |
| 2026-04-20 07:31 | 36.54793 | 14.30752 | 35114 ft | 482 kts | 196° |
| 2026-04-20 07:32 | 36.48289 | 14.29010 | 35120 ft | 481 kts | 196° |
| 2026-04-20 07:32 | 36.41737 | 14.27258 | 35115 ft | 481 kts | 196° |
| 2026-04-20 07:33 | 36.35190 | 14.25510 | 35109 ft | 481 kts | 196° |
| 2026-04-20 07:33 | 36.28639 | 14.23763 | 35120 ft | 481 kts | 196° |
| 2026-04-20 07:34 | 36.22099 | 14.22022 | 35117 ft | 481 kts | 196° |
| 2026-04-20 07:34 | 36.15554 | 14.20282 | 35119 ft | 480 kts | 196° |
| 2026-04-20 07:35 | 36.05765 | 14.17685 | 35122 ft | 479 kts | 196° |
| 2026-04-20 07:35 | 35.99300 | 14.15977 | 35121 ft | 479 kts | 196° |
| 2026-04-20 07:36 | 35.92780 | 14.14255 | 35125 ft | 479 kts | 196° |
| 2026-04-20 07:36 | 35.86264 | 14.12537 | 35119 ft | 478 kts | 196° |
| 2026-04-20 07:37 | 35.79765 | 14.10826 | 35124 ft | 478 kts | 196° |
| 2026-04-20 07:37 | 35.73256 | 14.09116 | 35128 ft | 478 kts | 196° |
| 2026-04-20 07:38 | 35.66755 | 14.07410 | 35114 ft | 478 kts | 196° |
| 2026-04-20 07:38 | 35.60246 | 14.05708 | 35125 ft | 478 kts | 196° |
| 2026-04-20 07:39 | 35.53748 | 14.04007 | 35131 ft | 478 kts | 196° |
| 2026-04-20 07:39 | 35.47242 | 14.02308 | 35137 ft | 478 kts | 196° |
| 2026-04-20 07:40 | 35.40744 | 14.00615 | 35134 ft | 478 kts | 196° |
| 2026-04-20 07:40 | 35.34242 | 13.98923 | 35140 ft | 478 kts | 196° |
| 2026-04-20 07:41 | 35.27740 | 13.97234 | 35138 ft | 478 kts | 196° |
| 2026-04-20 07:41 | 35.21236 | 13.95547 | 35141 ft | 478 kts | 196° |
| 2026-04-20 07:42 | 35.14733 | 13.93863 | 35140 ft | 478 kts | 196° |
| 2026-04-20 07:42 | 35.08231 | 13.92183 | 35144 ft | 478 kts | 196° |
| 2026-04-20 07:43 | 35.01725 | 13.90503 | 35140 ft | 478 kts | 196° |
| 2026-04-20 07:43 | 34.95229 | 13.88830 | 35147 ft | 478 kts | 196° |
| 2026-04-20 07:44 | 34.88721 | 13.87158 | 35140 ft | 478 kts | 196° |
| 2026-04-20 07:44 | 34.82221 | 13.85488 | 35141 ft | 477 kts | 196° |
| 2026-04-20 07:45 | 34.75765 | 13.83831 | 35145 ft | 477 kts | 196° |
| 2026-04-20 07:45 | 34.69266 | 13.82170 | 35131 ft | 477 kts | 196° |
| 2026-04-20 07:46 | 34.62777 | 13.80514 | 35147 ft | 477 kts | 196° |
| 2026-04-20 07:46 | 34.56270 | 13.78853 | 35228 ft | 480 kts | 196° |
| 2026-04-20 07:47 | 34.53005 | 13.78021 | 35523 ft | 479 kts | 196° |
| 2026-04-20 07:47 | 34.49749 | 13.77193 | 35870 ft | 476 kts | 197° |
| 2026-04-20 07:47 | 34.46534 | 13.76270 | 36137 ft | 475 kts | 199° |
| 2026-04-20 07:47 | 34.43331 | 13.75286 | 36134 ft | 473 kts | 199° |
| 2026-04-20 07:48 | 34.36959 | 13.73307 | 36144 ft | 472 kts | 199° |
| 2026-04-20 07:48 | 34.30587 | 13.71356 | 36150 ft | 473 kts | 199° |
| 2026-04-20 07:49 | 34.24206 | 13.69422 | 36151 ft | 473 kts | 199° |
| 2026-04-20 07:49 | 34.17829 | 13.67503 | 36142 ft | 472 kts | 199° |
| 2026-04-20 07:50 | 34.11462 | 13.65586 | 36148 ft | 471 kts | 199° |
| 2026-04-20 07:50 | 34.05101 | 13.63674 | 36145 ft | 471 kts | 199° |
| 2026-04-20 07:51 | 33.98786 | 13.61780 | 36151 ft | 471 kts | 199° |
| 2026-04-20 07:51 | 33.92425 | 13.59880 | 36144 ft | 470 kts | 200° |
| 2026-04-20 07:52 | 33.86073 | 13.57980 | 36152 ft | 470 kts | 200° |
| 2026-04-20 07:52 | 33.79727 | 13.56084 | 36163 ft | 470 kts | 200° |
| 2026-04-20 07:53 | 33.73371 | 13.54189 | 36155 ft | 470 kts | 200° |
| 2026-04-20 07:53 | 33.67022 | 13.52304 | 36148 ft | 470 kts | 200° |
| 2026-04-20 07:54 | 33.60673 | 13.50416 | 36163 ft | 470 kts | 200° |
| 2026-04-20 07:54 | 33.54330 | 13.48534 | 36155 ft | 469 kts | 200° |
| 2026-04-20 07:55 | 33.47991 | 13.46657 | 36159 ft | 469 kts | 200° |
| 2026-04-20 07:55 | 33.41664 | 13.44789 | 36153 ft | 468 kts | 200° |
| 2026-04-20 07:56 | 33.35335 | 13.42918 | 36153 ft | 468 kts | 200° |
| 2026-04-20 07:56 | 33.29013 | 13.41052 | 36155 ft | 468 kts | 200° |
| 2026-04-20 07:57 | 33.22688 | 13.39190 | 36159 ft | 468 kts | 200° |
| 2026-04-20 07:57 | 33.16372 | 13.37335 | 36158 ft | 467 kts | 200° |
| 2026-04-20 07:58 | 33.10054 | 13.35480 | 36160 ft | 467 kts | 200° |
| 2026-04-20 07:58 | 33.03736 | 13.33628 | 36145 ft | 467 kts | 200° |
| 2026-04-20 07:59 | 32.97468 | 13.31794 | 36141 ft | 467 kts | 200° |
| 2026-04-20 07:59 | 32.91151 | 13.29949 | 36134 ft | 467 kts | 200° |
| 2026-04-20 08:00 | 32.84838 | 13.28107 | 36137 ft | 467 kts | 200° |
| 2026-04-20 08:00 | 32.78520 | 13.26267 | 36141 ft | 467 kts | 200° |
| 2026-04-20 08:01 | 32.72203 | 13.24429 | 36147 ft | 467 kts | 200° |
| 2026-04-20 08:01 | 32.65889 | 13.22597 | 36152 ft | 467 kts | 200° |
| 2026-04-20 08:02 | 32.59575 | 13.20768 | 36161 ft | 467 kts | 200° |
| 2026-04-20 08:02 | 32.53259 | 13.18942 | 36159 ft | 467 kts | 200° |
| 2026-04-20 08:03 | 32.46929 | 13.17172 | 36158 ft | 469 kts | 198° |
| 2026-04-20 08:03 | 32.41548 | 13.16151 | 36156 ft | 472 kts | 194° |
| 2026-04-20 08:04 | 32.35041 | 13.15108 | 36160 ft | 472 kts | 194° |
| 2026-04-20 08:04 | 32.28540 | 13.14069 | 36162 ft | 471 kts | 194° |
| 2026-04-20 08:05 | 32.22039 | 13.13031 | 36159 ft | 471 kts | 194° |
| 2026-04-20 08:05 | 32.15557 | 13.12001 | 36162 ft | 470 kts | 195° |
| 2026-04-20 08:06 | 32.09085 | 13.10968 | 36172 ft | 469 kts | 195° |
| 2026-04-20 08:06 | 32.02658 | 13.09955 | 36175 ft | 469 kts | 195° |
| 2026-04-20 08:07 | 31.96187 | 13.08939 | 36175 ft | 469 kts | 195° |
| 2026-04-20 08:07 | 31.89717 | 13.07938 | 36164 ft | 469 kts | 196° |
| 2026-04-20 08:08 | 31.83250 | 13.06925 | 36190 ft | 469 kts | 196° |
| 2026-04-20 08:08 | 31.76789 | 13.05912 | 36186 ft | 468 kts | 196° |
| 2026-04-20 08:09 | 31.70326 | 13.04904 | 36185 ft | 468 kts | 196° |
| 2026-04-20 08:09 | 31.63859 | 13.03906 | 36177 ft | 469 kts | 197° |
| 2026-04-20 08:10 | 31.57394 | 13.02901 | 36194 ft | 468 kts | 197° |
| 2026-04-20 08:10 | 31.50927 | 13.01896 | 36194 ft | 469 kts | 197° |
| 2026-04-20 08:11 | 31.44452 | 13.00946 | 36193 ft | 471 kts | 194° |
| 2026-04-20 08:11 | 31.37906 | 13.00318 | 36178 ft | 472 kts | 194° |
| 2026-04-20 08:12 | 31.31357 | 12.99700 | 36183 ft | 472 kts | 194° |
| 2026-04-20 08:12 | 31.24810 | 12.99085 | 36186 ft | 472 kts | 194° |
| 2026-04-20 08:13 | 31.18259 | 12.98470 | 36190 ft | 472 kts | 194° |
| 2026-04-20 08:13 | 31.11756 | 12.97860 | 36167 ft | 472 kts | 193° |
| 2026-04-20 08:14 | 31.05221 | 12.97248 | 36180 ft | 471 kts | 193° |
| 2026-04-20 08:14 | 30.98691 | 12.96641 | 36186 ft | 471 kts | 193° |
| 2026-04-20 08:15 | 30.92156 | 12.96034 | 36194 ft | 471 kts | 193° |
| 2026-04-20 08:15 | 30.85623 | 12.95426 | 36171 ft | 471 kts | 193° |
| 2026-04-20 08:16 | 30.79106 | 12.94819 | 36186 ft | 470 kts | 193° |
| 2026-04-20 08:16 | 30.72592 | 12.94216 | 36186 ft | 470 kts | 193° |
| 2026-04-20 08:17 | 30.66076 | 12.93613 | 36182 ft | 469 kts | 193° |
| 2026-04-20 08:17 | 30.59567 | 12.93011 | 36184 ft | 469 kts | 193° |
| 2026-04-20 08:18 | 30.53052 | 12.92408 | 36177 ft | 469 kts | 193° |
| 2026-04-20 08:18 | 30.46544 | 12.91808 | 36184 ft | 469 kts | 193° |
| 2026-04-20 08:19 | 30.40038 | 12.91209 | 36186 ft | 469 kts | 193° |
| 2026-04-20 08:19 | 30.33529 | 12.90611 | 36186 ft | 469 kts | 193° |
| 2026-04-20 08:20 | 30.27020 | 12.90014 | 36172 ft | 469 kts | 193° |
| 2026-04-20 08:20 | 30.20512 | 12.89416 | 36180 ft | 469 kts | 193° |
| 2026-04-20 08:21 | 30.14043 | 12.88823 | 36181 ft | 469 kts | 193° |
| 2026-04-20 08:21 | 30.07532 | 12.88228 | 36181 ft | 469 kts | 193° |
| 2026-04-20 08:22 | 30.01023 | 12.87633 | 36180 ft | 469 kts | 193° |
| 2026-04-20 08:22 | 29.94519 | 12.87039 | 36178 ft | 469 kts | 193° |
| 2026-04-20 08:23 | 29.88009 | 12.86447 | 36176 ft | 469 kts | 193° |
| 2026-04-20 08:23 | 29.81499 | 12.85855 | 36173 ft | 469 kts | 193° |
| 2026-04-20 08:24 | 29.74987 | 12.85264 | 36153 ft | 469 kts | 193° |
| 2026-04-20 08:24 | 29.68485 | 12.84676 | 36170 ft | 468 kts | 193° |
| 2026-04-20 08:25 | 29.61987 | 12.84090 | 36169 ft | 468 kts | 193° |
| 2026-04-20 08:25 | 29.55497 | 12.83503 | 36170 ft | 468 kts | 193° |
| 2026-04-20 08:26 | 29.48945 | 12.83190 | 36172 ft | 472 kts | 190° |
| 2026-04-20 08:26 | 29.42391 | 12.83025 | 36151 ft | 471 kts | 190° |
| 2026-04-20 08:27 | 29.35840 | 12.82864 | 36158 ft | 470 kts | 190° |
| 2026-04-20 08:27 | 29.29298 | 12.82702 | 36158 ft | 470 kts | 190° |
| 2026-04-20 08:28 | 29.22753 | 12.82542 | 36159 ft | 470 kts | 190° |
| 2026-04-20 08:28 | 29.16253 | 12.82381 | 36139 ft | 470 kts | 190° |
| 2026-04-20 08:29 | 29.09715 | 12.82221 | 36149 ft | 470 kts | 190° |
| 2026-04-20 08:29 | 29.03174 | 12.82062 | 36153 ft | 470 kts | 190° |
| 2026-04-20 08:30 | 28.96644 | 12.81902 | 36141 ft | 470 kts | 190° |
| 2026-04-20 08:30 | 28.90108 | 12.81742 | 36130 ft | 470 kts | 190° |
| 2026-04-20 08:31 | 28.83569 | 12.81583 | 36141 ft | 470 kts | 190° |
| 2026-04-20 08:31 | 28.77024 | 12.81424 | 36143 ft | 470 kts | 190° |
| 2026-04-20 08:32 | 28.70487 | 12.81266 | 36136 ft | 470 kts | 190° |
| 2026-04-20 08:32 | 28.63953 | 12.81107 | 36137 ft | 470 kts | 190° |
| 2026-04-20 08:33 | 28.54139 | 12.80869 | 36132 ft | 470 kts | 190° |
| 2026-04-20 08:34 | 28.47598 | 12.80712 | 36131 ft | 470 kts | 190° |
| 2026-04-20 08:34 | 28.41050 | 12.80555 | 36128 ft | 470 kts | 190° |
| 2026-04-20 08:35 | 28.34553 | 12.80399 | 36103 ft | 470 kts | 189° |
| 2026-04-20 08:35 | 28.28015 | 12.80243 | 36120 ft | 470 kts | 189° |
| 2026-04-20 08:36 | 28.21478 | 12.80090 | 36128 ft | 470 kts | 189° |
| 2026-04-20 08:36 | 28.14943 | 12.79940 | 36123 ft | 470 kts | 189° |
| 2026-04-20 08:37 | 28.08402 | 12.79847 | 36120 ft | 470 kts | 189° |
| 2026-04-20 08:37 | 28.01862 | 12.79766 | 36111 ft | 469 kts | 189° |
| 2026-04-20 08:38 | 27.95350 | 12.79684 | 36116 ft | 468 kts | 189° |
| 2026-04-20 08:38 | 27.88835 | 12.79600 | 36119 ft | 468 kts | 189° |
| 2026-04-20 08:39 | 27.82316 | 12.79516 | 36115 ft | 468 kts | 189° |
| 2026-04-20 08:39 | 27.75849 | 12.79432 | 36094 ft | 468 kts | 189° |
| 2026-04-20 08:40 | 27.69354 | 12.79350 | 36113 ft | 467 kts | 189° |
| 2026-04-20 08:40 | 27.62856 | 12.79266 | 36109 ft | 466 kts | 189° |
| 2026-04-20 08:41 | 27.56365 | 12.79182 | 36117 ft | 467 kts | 189° |
| 2026-04-20 08:41 | 27.49881 | 12.79098 | 36119 ft | 467 kts | 189° |
| 2026-04-20 08:42 | 27.43387 | 12.79015 | 36099 ft | 466 kts | 189° |
| 2026-04-20 08:42 | 27.36911 | 12.78933 | 36108 ft | 465 kts | 189° |
| 2026-04-20 08:43 | 27.30436 | 12.78850 | 36114 ft | 465 kts | 189° |
| 2026-04-20 08:43 | 27.23966 | 12.78767 | 36111 ft | 465 kts | 189° |
| 2026-04-20 08:44 | 27.17493 | 12.78685 | 36113 ft | 465 kts | 189° |
| 2026-04-20 08:44 | 27.11026 | 12.78603 | 36109 ft | 465 kts | 189° |
| 2026-04-20 08:45 | 27.04549 | 12.78521 | 36108 ft | 465 kts | 189° |
| 2026-04-20 08:45 | 26.98086 | 12.78439 | 36109 ft | 465 kts | 189° |
| 2026-04-20 08:46 | 26.91622 | 12.78358 | 36103 ft | 465 kts | 189° |
| 2026-04-20 08:46 | 26.85161 | 12.78278 | 36090 ft | 463 kts | 189° |
| 2026-04-20 08:47 | 26.78775 | 12.78199 | 36102 ft | 461 kts | 189° |
| 2026-04-20 08:47 | 26.72361 | 12.78119 | 36104 ft | 461 kts | 189° |
| 2026-04-20 08:48 | 26.65945 | 12.78041 | 36138 ft | 461 kts | 189° |
| 2026-04-20 08:48 | 26.59540 | 12.77928 | 36140 ft | 459 kts | 191° |
| 2026-04-20 08:49 | 26.53208 | 12.77493 | 36136 ft | 454 kts | 192° |
| 2026-04-20 08:49 | 26.46907 | 12.77047 | 36151 ft | 454 kts | 192° |
| 2026-04-20 08:50 | 26.40607 | 12.76601 | 36129 ft | 454 kts | 192° |
| 2026-04-20 08:50 | 26.34297 | 12.76159 | 36120 ft | 454 kts | 192° |
| 2026-04-20 08:51 | 26.27996 | 12.75718 | 36084 ft | 453 kts | 192° |
| 2026-04-20 08:51 | 26.21722 | 12.75280 | 36094 ft | 451 kts | 192° |
| 2026-04-20 08:52 | 26.15457 | 12.74842 | 36101 ft | 451 kts | 192° |
| 2026-04-20 08:52 | 26.09202 | 12.74405 | 36104 ft | 451 kts | 192° |
| 2026-04-20 08:53 | 26.02938 | 12.73967 | 36104 ft | 451 kts | 192° |
| 2026-04-20 08:53 | 25.96736 | 12.73537 | 36089 ft | 449 kts | 192° |
| 2026-04-20 08:54 | 25.90496 | 12.73104 | 36111 ft | 449 kts | 192° |
| 2026-04-20 08:54 | 25.84266 | 12.72669 | 36107 ft | 449 kts | 192° |
| 2026-04-20 08:55 | 25.78037 | 12.72236 | 36101 ft | 448 kts | 192° |
| 2026-04-20 08:55 | 25.71808 | 12.71804 | 36102 ft | 448 kts | 192° |
| 2026-04-20 08:56 | 25.65592 | 12.71375 | 36104 ft | 446 kts | 192° |
| 2026-04-20 08:56 | 25.60444 | 12.71018 | 36108 ft | 446 kts | 192° |
| 2026-04-20 08:57 | 25.54256 | 12.70589 | 36109 ft | 446 kts | 192° |
| 2026-04-20 08:57 | 25.48059 | 12.70161 | 36106 ft | 446 kts | 192° |
| 2026-04-20 08:58 | 25.41870 | 12.69733 | 36110 ft | 446 kts | 192° |
| 2026-04-20 08:58 | 25.35678 | 12.69307 | 36099 ft | 446 kts | 192° |
| 2026-04-20 08:59 | 25.29483 | 12.68882 | 36109 ft | 446 kts | 192° |
| 2026-04-20 08:59 | 25.23279 | 12.68455 | 36111 ft | 446 kts | 192° |
| 2026-04-20 09:00 | 25.17081 | 12.68030 | 36119 ft | 446 kts | 192° |
| 2026-04-20 09:00 | 25.10889 | 12.67607 | 36116 ft | 446 kts | 192° |
| 2026-04-20 09:01 | 25.04696 | 12.67187 | 36119 ft | 446 kts | 192° |
| 2026-04-20 09:01 | 24.98553 | 12.66764 | 36115 ft | 446 kts | 192° |
| 2026-04-20 09:02 | 24.92355 | 12.66333 | 36118 ft | 446 kts | 192° |
| 2026-04-20 09:02 | 24.86153 | 12.65906 | 36117 ft | 446 kts | 192° |
| 2026-04-20 09:03 | 24.79955 | 12.65481 | 36127 ft | 446 kts | 192° |
| 2026-04-20 09:03 | 24.73765 | 12.65060 | 36123 ft | 446 kts | 192° |
| 2026-04-20 09:04 | 24.67574 | 12.64637 | 36122 ft | 446 kts | 192° |
| 2026-04-20 09:04 | 24.61387 | 12.64216 | 36131 ft | 445 kts | 192° |
| 2026-04-20 09:05 | 24.55203 | 12.63796 | 36127 ft | 445 kts | 192° |
| 2026-04-20 09:05 | 24.49014 | 12.63375 | 36124 ft | 445 kts | 192° |
| 2026-04-20 09:06 | 24.42827 | 12.62958 | 36117 ft | 446 kts | 193° |
| 2026-04-20 09:06 | 24.36642 | 12.62538 | 36134 ft | 445 kts | 193° |
| 2026-04-20 09:07 | 24.30455 | 12.62118 | 36135 ft | 445 kts | 193° |
| 2026-04-20 09:07 | 24.24305 | 12.61702 | 36126 ft | 445 kts | 193° |
| 2026-04-20 09:08 | 24.18117 | 12.61284 | 36134 ft | 446 kts | 193° |
| 2026-04-20 09:08 | 24.11929 | 12.60866 | 36121 ft | 446 kts | 193° |
| 2026-04-20 09:09 | 24.05740 | 12.60449 | 36137 ft | 446 kts | 193° |
| 2026-04-20 09:09 | 23.99552 | 12.60032 | 36134 ft | 446 kts | 193° |
| 2026-04-20 09:10 | 23.93363 | 12.59616 | 36121 ft | 446 kts | 193° |
| 2026-04-20 09:10 | 23.87174 | 12.59200 | 36120 ft | 446 kts | 193° |
| 2026-04-20 09:11 | 23.80976 | 12.58786 | 36124 ft | 446 kts | 193° |
| 2026-04-20 09:11 | 23.74781 | 12.58369 | 36127 ft | 446 kts | 193° |
| 2026-04-20 09:12 | 23.68583 | 12.57952 | 36121 ft | 446 kts | 193° |
| 2026-04-20 09:12 | 23.62430 | 12.57540 | 36122 ft | 446 kts | 193° |
| 2026-04-20 09:13 | 23.56228 | 12.57125 | 36119 ft | 446 kts | 193° |
| 2026-04-20 09:13 | 23.50042 | 12.56713 | 36112 ft | 444 kts | 193° |
| 2026-04-20 09:14 | 23.43872 | 12.56301 | 36114 ft | 444 kts | 193° |
| 2026-04-20 09:14 | 23.37707 | 12.55889 | 36115 ft | 444 kts | 193° |
| 2026-04-20 09:15 | 23.31541 | 12.55477 | 36113 ft | 444 kts | 193° |
| 2026-04-20 09:15 | 23.25371 | 12.55066 | 36113 ft | 444 kts | 193° |
| 2026-04-20 09:16 | 23.19192 | 12.54655 | 36101 ft | 445 kts | 193° |
| 2026-04-20 09:16 | 23.13005 | 12.54244 | 36111 ft | 445 kts | 193° |
| 2026-04-20 09:17 | 23.06820 | 12.53833 | 36107 ft | 445 kts | 193° |
| 2026-04-20 09:17 | 23.00633 | 12.53423 | 36108 ft | 445 kts | 193° |
| 2026-04-20 09:18 | 22.94452 | 12.53013 | 36106 ft | 445 kts | 193° |
| 2026-04-20 09:18 | 22.88269 | 12.52604 | 36098 ft | 445 kts | 193° |
| 2026-04-20 09:19 | 22.82126 | 12.52197 | 36098 ft | 445 kts | 193° |
| 2026-04-20 09:19 | 22.75941 | 12.51788 | 36099 ft | 445 kts | 193° |
| 2026-04-20 09:20 | 22.69750 | 12.51380 | 36094 ft | 445 kts | 193° |
| 2026-04-20 09:20 | 22.63566 | 12.50972 | 36094 ft | 445 kts | 193° |
| 2026-04-20 09:21 | 22.57387 | 12.50564 | 36074 ft | 444 kts | 193° |
| 2026-04-20 09:21 | 22.51216 | 12.50158 | 36080 ft | 444 kts | 193° |
| 2026-04-20 09:22 | 22.45043 | 12.49753 | 36079 ft | 444 kts | 193° |
| 2026-04-20 09:22 | 22.38879 | 12.49348 | 36082 ft | 444 kts | 193° |
| 2026-04-20 09:23 | 22.32712 | 12.48944 | 36076 ft | 444 kts | 193° |
| 2026-04-20 09:23 | 22.26544 | 12.48539 | 36067 ft | 443 kts | 193° |
| 2026-04-20 09:24 | 22.20392 | 12.48138 | 36070 ft | 443 kts | 193° |
| 2026-04-20 09:24 | 22.14234 | 12.47738 | 36073 ft | 443 kts | 193° |
| 2026-04-20 09:25 | 22.08080 | 12.47337 | 36074 ft | 443 kts | 193° |
| 2026-04-20 09:25 | 22.01905 | 12.47068 | 36073 ft | 448 kts | 189° |
| 2026-04-20 09:26 | 21.95679 | 12.47422 | 36049 ft | 455 kts | 184° |
| 2026-04-20 09:26 | 21.89388 | 12.48274 | 36067 ft | 456 kts | 182° |
| 2026-04-20 09:27 | 21.83104 | 12.49148 | 36064 ft | 456 kts | 182° |
| 2026-04-20 09:27 | 21.76809 | 12.50021 | 36069 ft | 456 kts | 182° |
| 2026-04-20 09:28 | 21.70518 | 12.50895 | 36071 ft | 455 kts | 182° |
| 2026-04-20 09:28 | 21.64231 | 12.51767 | 36052 ft | 455 kts | 182° |
| 2026-04-20 09:29 | 21.57947 | 12.52637 | 36056 ft | 455 kts | 182° |
| 2026-04-20 09:29 | 21.51661 | 12.53508 | 36064 ft | 455 kts | 182° |
| 2026-04-20 09:30 | 21.45381 | 12.54377 | 36058 ft | 455 kts | 182° |
| 2026-04-20 09:30 | 21.39102 | 12.55245 | 36058 ft | 455 kts | 182° |
| 2026-04-20 09:31 | 21.32815 | 12.56113 | 36058 ft | 455 kts | 182° |
| 2026-04-20 09:31 | 21.26574 | 12.56974 | 36038 ft | 456 kts | 182° |
| 2026-04-20 09:32 | 21.20283 | 12.57842 | 36046 ft | 455 kts | 182° |
| 2026-04-20 09:32 | 21.13999 | 12.58708 | 36047 ft | 456 kts | 182° |
| 2026-04-20 09:33 | 21.07708 | 12.59573 | 36051 ft | 456 kts | 182° |
| 2026-04-20 09:33 | 21.01413 | 12.60439 | 36045 ft | 456 kts | 182° |
| 2026-04-20 09:34 | 20.95128 | 12.61303 | 36044 ft | 456 kts | 182° |
| 2026-04-20 09:34 | 20.85700 | 12.62597 | 36040 ft | 456 kts | 182° |
| 2026-04-20 09:35 | 20.79414 | 12.63458 | 36037 ft | 455 kts | 182° |
| 2026-04-20 09:35 | 20.73123 | 12.64319 | 36036 ft | 456 kts | 182° |
| 2026-04-20 09:36 | 20.66836 | 12.65180 | 36016 ft | 456 kts | 182° |
| 2026-04-20 09:36 | 20.60547 | 12.66039 | 36028 ft | 456 kts | 182° |
| 2026-04-20 09:37 | 20.54258 | 12.66899 | 36034 ft | 455 kts | 182° |
| 2026-04-20 09:37 | 20.48069 | 12.66934 | 36029 ft | 438 kts | 197° |
| 2026-04-20 09:38 | 20.42206 | 12.65340 | 36042 ft | 436 kts | 207° |
| 2026-04-20 09:38 | 20.36560 | 12.63238 | 36029 ft | 426 kts | 207° |
| 2026-04-20 09:39 | 20.30969 | 12.61148 | 36019 ft | 426 kts | 207° |
| 2026-04-20 09:39 | 20.25415 | 12.59080 | 36021 ft | 426 kts | 207° |
| 2026-04-20 09:40 | 20.19819 | 12.57000 | 36036 ft | 426 kts | 207° |
| 2026-04-20 09:40 | 20.14049 | 12.55351 | 36027 ft | 438 kts | 196° |
| 2026-04-20 09:41 | 20.07834 | 12.55346 | 36032 ft | 456 kts | 183° |
| 2026-04-20 09:41 | 20.01527 | 12.56185 | 35998 ft | 457 kts | 182° |
| 2026-04-20 09:42 | 19.95237 | 12.57057 | 36019 ft | 455 kts | 182° |
| 2026-04-20 09:42 | 19.88955 | 12.57921 | 36022 ft | 455 kts | 182° |
| 2026-04-20 09:43 | 19.82674 | 12.58780 | 36024 ft | 455 kts | 182° |
| 2026-04-20 09:43 | 19.76393 | 12.59638 | 36023 ft | 455 kts | 182° |
| 2026-04-20 09:44 | 19.70116 | 12.60494 | 36023 ft | 455 kts | 182° |
| 2026-04-20 09:44 | 19.63842 | 12.61348 | 36015 ft | 453 kts | 182° |
| 2026-04-20 09:45 | 19.57590 | 12.62200 | 36020 ft | 453 kts | 182° |
| 2026-04-20 09:45 | 19.51389 | 12.63044 | 36019 ft | 453 kts | 182° |
| 2026-04-20 09:46 | 19.45140 | 12.63893 | 36021 ft | 453 kts | 182° |
| 2026-04-20 09:46 | 19.38893 | 12.64742 | 36020 ft | 453 kts | 182° |
| 2026-04-20 09:47 | 19.32651 | 12.65588 | 36005 ft | 451 kts | 182° |
| 2026-04-20 09:47 | 19.26432 | 12.66433 | 36012 ft | 450 kts | 182° |
| 2026-04-20 09:48 | 19.20218 | 12.67276 | 36011 ft | 450 kts | 182° |
| 2026-04-20 09:48 | 19.13998 | 12.68120 | 36012 ft | 450 kts | 182° |
| 2026-04-20 09:49 | 19.07785 | 12.68963 | 36010 ft | 450 kts | 182° |
| 2026-04-20 09:49 | 19.01567 | 12.69805 | 35981 ft | 450 kts | 182° |
| 2026-04-20 09:50 | 18.96409 | 12.70607 | 35999 ft | 454 kts | 178° |
| 2026-04-20 09:50 | 18.90222 | 12.72176 | 36005 ft | 461 kts | 173° |
| 2026-04-20 09:51 | 18.84074 | 12.74182 | 36005 ft | 462 kts | 172° |
| 2026-04-20 09:51 | 18.77936 | 12.76197 | 36006 ft | 462 kts | 172° |
| 2026-04-20 09:52 | 18.71796 | 12.78209 | 35999 ft | 462 kts | 172° |
| 2026-04-20 09:52 | 18.65659 | 12.80218 | 35985 ft | 462 kts | 172° |
| 2026-04-20 09:53 | 18.59509 | 12.82230 | 36006 ft | 463 kts | 172° |
| 2026-04-20 09:53 | 18.53352 | 12.84245 | 36006 ft | 463 kts | 172° |
| 2026-04-20 09:54 | 18.47199 | 12.86257 | 36003 ft | 463 kts | 172° |
| 2026-04-20 09:54 | 18.41050 | 12.88266 | 36004 ft | 463 kts | 172° |
| 2026-04-20 09:55 | 18.34895 | 12.90274 | 36000 ft | 463 kts | 172° |
| 2026-04-20 09:55 | 18.28732 | 12.92279 | 35998 ft | 465 kts | 171° |
| 2026-04-20 09:56 | 18.22556 | 12.94293 | 35992 ft | 465 kts | 171° |
| 2026-04-20 09:56 | 18.16413 | 12.96295 | 35998 ft | 465 kts | 171° |
| 2026-04-20 09:57 | 18.10234 | 12.98306 | 35996 ft | 465 kts | 171° |
| 2026-04-20 09:57 | 18.04054 | 13.00315 | 35997 ft | 465 kts | 171° |
| 2026-04-20 09:58 | 17.97878 | 13.02321 | 35975 ft | 465 kts | 171° |
| 2026-04-20 09:58 | 17.91679 | 13.04329 | 35986 ft | 466 kts | 171° |
| 2026-04-20 09:59 | 17.85479 | 13.06343 | 35991 ft | 466 kts | 171° |
| 2026-04-20 09:59 | 17.79283 | 13.08353 | 35988 ft | 466 kts | 171° |
| 2026-04-20 10:00 | 17.73080 | 13.10363 | 35987 ft | 466 kts | 171° |
| 2026-04-20 10:00 | 17.66878 | 13.12371 | 35985 ft | 466 kts | 171° |
| 2026-04-20 10:01 | 17.60674 | 13.14377 | 35987 ft | 468 kts | 171° |
| 2026-04-20 10:01 | 17.54441 | 13.16393 | 35984 ft | 469 kts | 171° |
| 2026-04-20 10:02 | 17.48203 | 13.18410 | 35984 ft | 469 kts | 171° |
| 2026-04-20 10:02 | 17.41961 | 13.20421 | 35978 ft | 469 kts | 171° |
| 2026-04-20 10:03 | 17.35727 | 13.22427 | 35978 ft | 469 kts | 171° |
| 2026-04-20 10:03 | 17.29486 | 13.24437 | 35963 ft | 469 kts | 171° |
| 2026-04-20 10:04 | 17.23282 | 13.26432 | 35971 ft | 470 kts | 171° |
| 2026-04-20 10:04 | 17.17024 | 13.28446 | 35977 ft | 470 kts | 171° |
| 2026-04-20 10:05 | 17.10770 | 13.30456 | 35968 ft | 470 kts | 171° |
| 2026-04-20 10:05 | 17.04516 | 13.32466 | 35969 ft | 470 kts | 171° |
| 2026-04-20 10:06 | 16.98269 | 13.34471 | 35971 ft | 470 kts | 171° |
| 2026-04-20 10:06 | 16.92009 | 13.36477 | 35958 ft | 470 kts | 171° |
| 2026-04-20 10:07 | 16.85753 | 13.38483 | 35961 ft | 471 kts | 171° |
| 2026-04-20 10:07 | 16.79494 | 13.40490 | 35963 ft | 471 kts | 171° |
| 2026-04-20 10:08 | 16.73231 | 13.42496 | 35960 ft | 471 kts | 171° |
| 2026-04-20 10:08 | 16.66974 | 13.44499 | 35960 ft | 471 kts | 171° |
| 2026-04-20 10:09 | 16.60713 | 13.46502 | 35958 ft | 471 kts | 171° |
| 2026-04-20 10:09 | 16.54458 | 13.48500 | 35952 ft | 470 kts | 170° |
| 2026-04-20 10:10 | 16.48210 | 13.50493 | 35956 ft | 469 kts | 170° |
| 2026-04-20 10:10 | 16.42009 | 13.52467 | 35954 ft | 469 kts | 170° |
| 2026-04-20 10:11 | 16.35766 | 13.54455 | 35952 ft | 469 kts | 170° |
| 2026-04-20 10:11 | 16.29531 | 13.56439 | 35948 ft | 469 kts | 170° |
| 2026-04-20 10:12 | 16.23289 | 13.58425 | 35937 ft | 468 kts | 170° |
| 2026-04-20 10:12 | 16.17064 | 13.60405 | 35941 ft | 467 kts | 170° |
| 2026-04-20 10:13 | 16.10840 | 13.62383 | 35942 ft | 467 kts | 170° |
| 2026-04-20 10:13 | 16.04622 | 13.64359 | 35944 ft | 467 kts | 170° |
| 2026-04-20 10:14 | 15.98399 | 13.66334 | 35940 ft | 468 kts | 170° |
| 2026-04-20 10:14 | 15.92178 | 13.68308 | 35943 ft | 468 kts | 170° |
| 2026-04-20 10:15 | 15.85946 | 13.70279 | 35936 ft | 468 kts | 169° |
| 2026-04-20 10:15 | 15.79750 | 13.72243 | 35937 ft | 468 kts | 169° |
| 2026-04-20 10:16 | 15.73517 | 13.74218 | 35935 ft | 469 kts | 169° |
| 2026-04-20 10:16 | 15.67270 | 13.76196 | 35937 ft | 469 kts | 169° |
| 2026-04-20 10:17 | 15.61030 | 13.78169 | 35936 ft | 469 kts | 169° |
| 2026-04-20 10:17 | 15.54787 | 13.80141 | 35922 ft | 469 kts | 169° |
| 2026-04-20 10:18 | 15.48546 | 13.82110 | 35926 ft | 469 kts | 169° |
| 2026-04-20 10:18 | 15.42308 | 13.84080 | 35928 ft | 469 kts | 169° |
| 2026-04-20 10:19 | 15.36068 | 13.86049 | 35926 ft | 469 kts | 169° |
| 2026-04-20 10:19 | 15.29832 | 13.88015 | 35926 ft | 468 kts | 169° |
| 2026-04-20 10:20 | 15.23597 | 13.89979 | 35922 ft | 468 kts | 169° |
| 2026-04-20 10:20 | 15.17372 | 13.91937 | 35912 ft | 467 kts | 169° |
| 2026-04-20 10:21 | 15.11152 | 13.93895 | 35916 ft | 467 kts | 169° |
| 2026-04-20 10:21 | 15.04984 | 13.95835 | 35915 ft | 467 kts | 169° |
| 2026-04-20 10:22 | 14.98777 | 13.97785 | 35914 ft | 467 kts | 169° |
| 2026-04-20 10:22 | 14.92564 | 13.99737 | 35914 ft | 467 kts | 169° |
| 2026-04-20 10:23 | 14.86361 | 14.01684 | 35905 ft | 467 kts | 169° |
| 2026-04-20 10:23 | 14.80149 | 14.03628 | 35899 ft | 465 kts | 169° |
| 2026-04-20 10:24 | 14.73961 | 14.05571 | 35902 ft | 465 kts | 169° |
| 2026-04-20 10:24 | 14.67770 | 14.07512 | 35900 ft | 465 kts | 169° |
| 2026-04-20 10:25 | 14.61577 | 14.09452 | 35889 ft | 465 kts | 169° |
| 2026-04-20 10:25 | 14.55384 | 14.11391 | 35889 ft | 465 kts | 169° |
| 2026-04-20 10:26 | 14.49195 | 14.13327 | 35882 ft | 465 kts | 169° |
| 2026-04-20 10:26 | 14.42986 | 14.15267 | 35882 ft | 467 kts | 168° |
| 2026-04-20 10:27 | 14.36776 | 14.17211 | 35881 ft | 467 kts | 168° |
| 2026-04-20 10:27 | 14.30602 | 14.19136 | 35883 ft | 466 kts | 168° |
| 2026-04-20 10:28 | 14.24384 | 14.21071 | 35880 ft | 467 kts | 168° |
| 2026-04-20 10:28 | 14.18169 | 14.23004 | 35874 ft | 467 kts | 168° |
| 2026-04-20 10:29 | 14.11956 | 14.24940 | 35876 ft | 466 kts | 168° |
| 2026-04-20 10:29 | 14.05740 | 14.26875 | 35868 ft | 466 kts | 168° |
| 2026-04-20 10:30 | 13.99530 | 14.28808 | 35866 ft | 466 kts | 168° |
| 2026-04-20 10:30 | 13.93323 | 14.30738 | 35868 ft | 466 kts | 168° |
| 2026-04-20 10:31 | 13.87106 | 14.32670 | 35860 ft | 467 kts | 168° |
| 2026-04-20 10:31 | 13.80890 | 14.34601 | 35860 ft | 467 kts | 168° |
| 2026-04-20 10:32 | 13.74672 | 14.36527 | 35851 ft | 467 kts | 168° |
| 2026-04-20 10:32 | 13.68459 | 14.38456 | 35855 ft | 467 kts | 168° |
| 2026-04-20 10:33 | 13.62237 | 14.40388 | 35851 ft | 467 kts | 168° |
| 2026-04-20 10:33 | 13.56023 | 14.42315 | 35850 ft | 467 kts | 168° |
| 2026-04-20 10:34 | 13.49806 | 14.44241 | 35848 ft | 467 kts | 168° |
| 2026-04-20 10:35 | 13.40523 | 14.47112 | 35842 ft | 467 kts | 168° |
| 2026-04-20 10:35 | 13.34303 | 14.49036 | 35847 ft | 467 kts | 167° |
| 2026-04-20 10:36 | 13.28083 | 14.50961 | 35844 ft | 467 kts | 167° |
| 2026-04-20 10:36 | 13.21867 | 14.52882 | 35845 ft | 467 kts | 167° |
| 2026-04-20 10:37 | 13.15645 | 14.54805 | 35843 ft | 467 kts | 167° |
| 2026-04-20 10:37 | 13.09430 | 14.56724 | 35843 ft | 467 kts | 167° |
| 2026-04-20 10:38 | 13.03205 | 14.58641 | 35839 ft | 467 kts | 167° |
| 2026-04-20 10:38 | 12.96976 | 14.60563 | 35842 ft | 466 kts | 167° |
| 2026-04-20 10:39 | 12.90760 | 14.62480 | 35836 ft | 466 kts | 167° |
| 2026-04-20 10:39 | 12.84539 | 14.64397 | 35837 ft | 466 kts | 167° |
| 2026-04-20 10:40 | 12.78324 | 14.66311 | 35831 ft | 466 kts | 167° |
| 2026-04-20 10:40 | 12.72151 | 14.68211 | 35831 ft | 466 kts | 167° |
| 2026-04-20 10:41 | 12.65936 | 14.70122 | 35834 ft | 466 kts | 167° |
| 2026-04-20 10:41 | 12.59723 | 14.72033 | 35832 ft | 466 kts | 167° |
| 2026-04-20 10:42 | 12.53513 | 14.73941 | 35831 ft | 466 kts | 167° |
| 2026-04-20 10:42 | 12.47300 | 14.75850 | 35825 ft | 466 kts | 167° |
| 2026-04-20 10:43 | 12.42093 | 14.77449 | 35829 ft | 466 kts | 167° |
| 2026-04-20 10:43 | 12.35884 | 14.79354 | 35820 ft | 466 kts | 167° |
| 2026-04-20 10:44 | 12.29716 | 14.81245 | 35826 ft | 466 kts | 167° |
| 2026-04-20 10:44 | 12.23512 | 14.83151 | 35828 ft | 465 kts | 167° |
| 2026-04-20 10:45 | 12.17303 | 14.85055 | 35826 ft | 465 kts | 167° |
| 2026-04-20 10:45 | 12.11053 | 14.86705 | 35826 ft | 462 kts | 172° |
| 2026-04-20 10:46 | 12.04707 | 14.87609 | 35826 ft | 460 kts | 178° |
| 2026-04-20 10:46 | 11.98335 | 14.88224 | 35814 ft | 461 kts | 177° |
| 2026-04-20 10:47 | 11.91938 | 14.88837 | 35825 ft | 462 kts | 177° |
| 2026-04-20 10:47 | 11.85533 | 14.89458 | 35826 ft | 462 kts | 177° |
| 2026-04-20 10:48 | 11.79121 | 14.90079 | 35827 ft | 463 kts | 177° |
| 2026-04-20 10:48 | 11.72713 | 14.90699 | 35826 ft | 462 kts | 177° |
| 2026-04-20 10:49 | 11.66351 | 14.91315 | 35827 ft | 462 kts | 177° |
| 2026-04-20 10:49 | 11.59929 | 14.91935 | 35825 ft | 465 kts | 177° |
| 2026-04-20 10:50 | 11.53493 | 14.92557 | 35822 ft | 464 kts | 177° |
| 2026-04-20 10:50 | 11.47079 | 14.93177 | 35820 ft | 462 kts | 177° |
| 2026-04-20 10:51 | 11.40677 | 14.93795 | 35825 ft | 462 kts | 177° |
| 2026-04-20 10:51 | 11.34280 | 14.94412 | 35826 ft | 462 kts | 177° |
| 2026-04-20 10:52 | 11.27883 | 14.95028 | 35820 ft | 462 kts | 177° |
| 2026-04-20 10:52 | 11.21501 | 14.95642 | 35819 ft | 461 kts | 177° |
| 2026-04-20 10:53 | 11.15103 | 14.96454 | 36085 ft | 466 kts | 169° |
| 2026-04-20 10:53 | 11.11998 | 14.97413 | 36442 ft | 467 kts | 162° |
| 2026-04-20 10:53 | 11.09034 | 14.98770 | 36824 ft | 468 kts | 155° |
| 2026-04-20 10:53 | 11.06226 | 15.00448 | 37176 ft | 467 kts | 152° |
| 2026-04-20 10:54 | 11.03471 | 15.02196 | 37492 ft | 466 kts | 151° |
| 2026-04-20 10:54 | 11.00764 | 15.03928 | 37775 ft | 465 kts | 151° |
| 2026-04-20 10:54 | 10.98022 | 15.05678 | 37820 ft | 465 kts | 151° |
| 2026-04-20 10:55 | 10.92532 | 15.09159 | 37817 ft | 465 kts | 152° |
| 2026-04-20 10:55 | 10.87036 | 15.12624 | 37822 ft | 465 kts | 151° |
| 2026-04-20 10:56 | 10.81366 | 15.15708 | 37817 ft | 460 kts | 162° |
| 2026-04-20 10:56 | 10.75177 | 15.17164 | 37825 ft | 455 kts | 176° |
| 2026-04-20 10:57 | 10.68872 | 15.17774 | 37822 ft | 455 kts | 177° |
| 2026-04-20 10:57 | 10.62561 | 15.18358 | 37818 ft | 455 kts | 176° |
| 2026-04-20 10:58 | 10.56250 | 15.18952 | 37818 ft | 455 kts | 176° |
| 2026-04-20 10:58 | 10.49941 | 15.19552 | 37821 ft | 455 kts | 176° |
| 2026-04-20 10:59 | 10.43632 | 15.20153 | 37821 ft | 455 kts | 176° |
| 2026-04-20 10:59 | 10.37323 | 15.20754 | 37823 ft | 455 kts | 176° |
| 2026-04-20 11:00 | 10.31017 | 15.21355 | 37822 ft | 455 kts | 176° |
| 2026-04-20 11:00 | 10.24712 | 15.21956 | 37822 ft | 455 kts | 176° |
| 2026-04-20 11:01 | 10.18399 | 15.22553 | 37815 ft | 456 kts | 176° |
| 2026-04-20 11:01 | 10.12118 | 15.23152 | 37818 ft | 457 kts | 175° |
| 2026-04-20 11:02 | 10.05794 | 15.23760 | 37814 ft | 457 kts | 176° |
| 2026-04-20 11:02 | 9.99474 | 15.24359 | 37813 ft | 457 kts | 176° |
| 2026-04-20 11:03 | 9.93148 | 15.24957 | 37814 ft | 457 kts | 176° |
| 2026-04-20 11:03 | 9.86826 | 15.25557 | 37817 ft | 457 kts | 176° |
| 2026-04-20 11:04 | 9.80472 | 15.26161 | 37814 ft | 461 kts | 176° |
| 2026-04-20 11:04 | 9.74077 | 15.26768 | 37816 ft | 462 kts | 176° |
| 2026-04-20 11:05 | 9.67681 | 15.27375 | 37821 ft | 462 kts | 176° |
| 2026-04-20 11:05 | 9.61272 | 15.27984 | 37817 ft | 462 kts | 176° |
| 2026-04-20 11:06 | 9.54866 | 15.28593 | 37814 ft | 462 kts | 176° |
| 2026-04-20 11:06 | 9.48456 | 15.29209 | 37818 ft | 463 kts | 176° |
| 2026-04-20 11:07 | 9.42016 | 15.29816 | 37811 ft | 466 kts | 176° |
| 2026-04-20 11:07 | 9.35556 | 15.30423 | 37809 ft | 466 kts | 176° |
| 2026-04-20 11:08 | 9.29091 | 15.31031 | 37815 ft | 466 kts | 176° |
| 2026-04-20 11:08 | 9.22626 | 15.31641 | 37814 ft | 466 kts | 176° |
| 2026-04-20 11:09 | 9.16161 | 15.32252 | 37813 ft | 466 kts | 176° |
| 2026-04-20 11:09 | 9.09747 | 15.32859 | 37814 ft | 466 kts | 177° |
| 2026-04-20 11:10 | 9.03296 | 15.33469 | 37812 ft | 465 kts | 177° |
| 2026-04-20 11:10 | 8.96852 | 15.34077 | 37813 ft | 465 kts | 177° |
| 2026-04-20 11:11 | 8.90407 | 15.34685 | 37819 ft | 465 kts | 177° |
| 2026-04-20 11:11 | 8.83957 | 15.35293 | 37818 ft | 465 kts | 177° |
| 2026-04-20 11:12 | 8.77513 | 15.35902 | 37816 ft | 465 kts | 177° |
| 2026-04-20 11:12 | 8.71062 | 15.36508 | 37822 ft | 466 kts | 176° |
| 2026-04-20 11:13 | 8.64606 | 15.37118 | 37821 ft | 466 kts | 176° |
| 2026-04-20 11:13 | 8.58154 | 15.37726 | 37824 ft | 466 kts | 176° |
| 2026-04-20 11:14 | 8.51696 | 15.38335 | 37824 ft | 466 kts | 176° |
| 2026-04-20 11:14 | 8.45238 | 15.38944 | 37830 ft | 466 kts | 176° |
| 2026-04-20 11:15 | 8.38779 | 15.39551 | 37820 ft | 466 kts | 176° |
| 2026-04-20 11:15 | 8.32323 | 15.40159 | 37827 ft | 466 kts | 176° |
| 2026-04-20 11:16 | 8.25903 | 15.40764 | 37828 ft | 466 kts | 176° |
| 2026-04-20 11:16 | 8.19437 | 15.41374 | 37829 ft | 466 kts | 176° |
| 2026-04-20 11:17 | 8.12978 | 15.41983 | 37826 ft | 466 kts | 176° |
| 2026-04-20 11:17 | 8.06516 | 15.42592 | 37824 ft | 466 kts | 176° |
| 2026-04-20 11:18 | 8.00044 | 15.43200 | 37827 ft | 468 kts | 176° |
| 2026-04-20 11:18 | 7.93572 | 15.43805 | 37825 ft | 468 kts | 176° |
| 2026-04-20 11:19 | 7.87084 | 15.44413 | 37828 ft | 468 kts | 176° |
| 2026-04-20 11:19 | 7.80595 | 15.45022 | 37827 ft | 468 kts | 176° |
| 2026-04-20 11:20 | 7.74109 | 15.45631 | 37823 ft | 468 kts | 176° |
| 2026-04-20 11:20 | 7.67623 | 15.46240 | 37825 ft | 468 kts | 176° |
| 2026-04-20 11:21 | 7.61132 | 15.46849 | 37830 ft | 468 kts | 176° |
| 2026-04-20 11:21 | 7.54645 | 15.47459 | 37829 ft | 468 kts | 176° |
| 2026-04-20 11:22 | 7.48200 | 15.48065 | 37832 ft | 468 kts | 176° |
| 2026-04-20 11:22 | 7.41711 | 15.48674 | 37844 ft | 468 kts | 176° |
| 2026-04-20 11:23 | 7.35222 | 15.49285 | 37841 ft | 468 kts | 176° |
| 2026-04-20 11:23 | 7.28744 | 15.49894 | 37853 ft | 466 kts | 176° |
| 2026-04-20 11:24 | 7.22291 | 15.50497 | 37854 ft | 465 kts | 176° |
| 2026-04-20 11:24 | 7.15852 | 15.51098 | 37852 ft | 464 kts | 176° |
| 2026-04-20 11:25 | 7.09413 | 15.51697 | 37854 ft | 465 kts | 176° |
| 2026-04-20 11:25 | 7.02970 | 15.52305 | 37867 ft | 465 kts | 176° |
| 2026-04-20 11:26 | 6.96543 | 15.52907 | 37869 ft | 464 kts | 176° |
| 2026-04-20 11:26 | 6.90097 | 15.53508 | 37869 ft | 465 kts | 176° |
| 2026-04-20 11:27 | 6.83663 | 15.54104 | 37869 ft | 464 kts | 176° |
| 2026-04-20 11:27 | 6.77223 | 15.54703 | 37870 ft | 466 kts | 176° |
| 2026-04-20 11:28 | 6.70783 | 15.55312 | 37875 ft | 464 kts | 176° |
| 2026-04-20 11:28 | 6.64355 | 15.55909 | 37866 ft | 465 kts | 176° |
| 2026-04-20 11:29 | 6.57905 | 15.56510 | 37867 ft | 464 kts | 176° |
| 2026-04-20 11:29 | 6.51501 | 15.57106 | 37864 ft | 462 kts | 176° |
| 2026-04-20 11:30 | 6.45139 | 15.57700 | 37866 ft | 463 kts | 176° |
| 2026-04-20 11:30 | 6.38728 | 15.58301 | 37865 ft | 461 kts | 176° |
| 2026-04-20 11:31 | 6.32331 | 15.58895 | 37864 ft | 462 kts | 176° |
| 2026-04-20 11:31 | 6.25926 | 15.59491 | 37854 ft | 462 kts | 176° |
| 2026-04-20 11:32 | 6.19532 | 15.60085 | 37856 ft | 461 kts | 175° |
| 2026-04-20 11:32 | 6.13144 | 15.60679 | 37850 ft | 462 kts | 175° |
| 2026-04-20 11:33 | 6.06754 | 15.61278 | 37849 ft | 460 kts | 176° |
| 2026-04-20 11:33 | 6.00379 | 15.61871 | 37841 ft | 461 kts | 175° |
| 2026-04-20 11:34 | 5.93990 | 15.62467 | 37842 ft | 461 kts | 175° |
| 2026-04-20 11:34 | 5.88687 | 15.62962 | 37838 ft | 460 kts | 175° |
| 2026-04-20 11:35 | 5.82300 | 15.63550 | 37832 ft | 462 kts | 175° |
| 2026-04-20 11:35 | 5.75895 | 15.64149 | 37835 ft | 462 kts | 175° |
| 2026-04-20 11:36 | 5.69503 | 15.64747 | 37829 ft | 461 kts | 175° |
| 2026-04-20 11:36 | 5.63108 | 15.65344 | 37827 ft | 461 kts | 175° |
| 2026-04-20 11:37 | 5.56730 | 15.65938 | 37822 ft | 460 kts | 175° |
| 2026-04-20 11:37 | 5.47142 | 15.66824 | 37822 ft | 462 kts | 175° |
| 2026-04-20 11:38 | 5.40750 | 15.67419 | 37816 ft | 461 kts | 175° |
| 2026-04-20 11:38 | 5.34352 | 15.68017 | 37816 ft | 463 kts | 175° |
| 2026-04-20 11:39 | 5.27944 | 15.68615 | 37813 ft | 461 kts | 175° |
| 2026-04-20 11:39 | 5.21562 | 15.69210 | 37810 ft | 461 kts | 175° |
| 2026-04-20 11:40 | 5.15203 | 15.69802 | 37810 ft | 462 kts | 175° |
| 2026-04-20 11:40 | 5.08801 | 15.70397 | 37810 ft | 463 kts | 174° |
| 2026-04-20 11:41 | 5.02373 | 15.70997 | 37812 ft | 464 kts | 174° |
| 2026-04-20 11:41 | 4.95948 | 15.71597 | 37814 ft | 464 kts | 174° |
| 2026-04-20 11:42 | 4.89523 | 15.72197 | 37816 ft | 464 kts | 174° |
| 2026-04-20 11:42 | 4.83094 | 15.72796 | 37817 ft | 464 kts | 174° |
| 2026-04-20 11:43 | 4.76660 | 15.73389 | 37815 ft | 464 kts | 174° |
| 2026-04-20 11:43 | 4.70243 | 15.73981 | 37815 ft | 463 kts | 174° |
| 2026-04-20 11:44 | 4.63827 | 15.74576 | 37812 ft | 463 kts | 174° |
| 2026-04-20 11:44 | 4.57417 | 15.75171 | 37813 ft | 463 kts | 174° |
| 2026-04-20 11:45 | 4.51004 | 15.75766 | 37813 ft | 463 kts | 174° |
| 2026-04-20 11:45 | 4.44596 | 15.76361 | 37814 ft | 463 kts | 174° |
| 2026-04-20 11:46 | 4.38186 | 15.76955 | 37813 ft | 462 kts | 174° |
| 2026-04-20 11:46 | 4.31845 | 15.77544 | 37811 ft | 460 kts | 174° |
| 2026-04-20 11:47 | 4.25464 | 15.78106 | 37811 ft | 460 kts | 176° |
| 2026-04-20 11:47 | 4.19063 | 15.78176 | 37813 ft | 461 kts | 181° |
| 2026-04-20 11:48 | 4.12661 | 15.77873 | 37810 ft | 461 kts | 182° |
| 2026-04-20 11:48 | 4.06254 | 15.77561 | 37810 ft | 461 kts | 182° |
| 2026-04-20 11:49 | 3.99856 | 15.77250 | 37812 ft | 460 kts | 181° |
| 2026-04-20 11:49 | 3.93463 | 15.76941 | 37814 ft | 460 kts | 181° |
| 2026-04-20 11:50 | 3.87074 | 15.76633 | 37809 ft | 460 kts | 181° |
| 2026-04-20 11:50 | 3.80687 | 15.76325 | 37814 ft | 460 kts | 181° |
| 2026-04-20 11:51 | 3.74292 | 15.76017 | 37814 ft | 460 kts | 181° |
| 2026-04-20 11:51 | 3.67905 | 15.75709 | 37817 ft | 460 kts | 181° |
| 2026-04-20 11:52 | 3.61510 | 15.75400 | 37812 ft | 460 kts | 181° |
| 2026-04-20 11:52 | 3.55114 | 15.75092 | 37810 ft | 460 kts | 181° |
| 2026-04-20 11:53 | 3.48718 | 15.74785 | 37809 ft | 460 kts | 181° |
| 2026-04-20 11:53 | 3.42320 | 15.74477 | 37813 ft | 460 kts | 181° |
| 2026-04-20 11:54 | 3.35926 | 15.74169 | 37814 ft | 460 kts | 181° |
| 2026-04-20 11:54 | 3.29526 | 15.73861 | 37815 ft | 460 kts | 181° |
| 2026-04-20 11:55 | 3.23131 | 15.73554 | 37815 ft | 460 kts | 181° |
| 2026-04-20 11:55 | 3.16729 | 15.73246 | 37815 ft | 460 kts | 181° |
| 2026-04-20 11:56 | 3.10370 | 15.72940 | 37816 ft | 460 kts | 181° |
| 2026-04-20 11:56 | 3.03975 | 15.72633 | 37819 ft | 460 kts | 181° |
| 2026-04-20 11:57 | 2.97579 | 15.72327 | 37816 ft | 460 kts | 181° |
| 2026-04-20 11:57 | 2.91174 | 15.72019 | 37820 ft | 460 kts | 181° |
| 2026-04-20 11:58 | 2.84779 | 15.72009 | 37811 ft | 459 kts | 176° |
| 2026-04-20 11:58 | 2.78431 | 15.72644 | 37811 ft | 459 kts | 170° |
| 2026-04-20 11:59 | 2.72181 | 15.73920 | 37811 ft | 458 kts | 165° |
| 2026-04-20 11:59 | 2.66042 | 15.75630 | 37813 ft | 458 kts | 163° |
| 2026-04-20 12:00 | 2.59911 | 15.77365 | 37813 ft | 458 kts | 163° |
| 2026-04-20 12:00 | 2.53784 | 15.79096 | 37812 ft | 458 kts | 163° |
| 2026-04-20 12:01 | 2.47654 | 15.80827 | 37811 ft | 458 kts | 163° |
| 2026-04-20 12:01 | 2.41519 | 15.82560 | 37810 ft | 458 kts | 163° |
| 2026-04-20 12:02 | 2.35385 | 15.84292 | 37807 ft | 458 kts | 163° |
| 2026-04-20 12:02 | 2.29249 | 15.86023 | 37807 ft | 458 kts | 163° |
| 2026-04-20 12:03 | 2.23109 | 15.87756 | 37813 ft | 458 kts | 163° |
| 2026-04-20 12:03 | 2.16977 | 15.89484 | 37813 ft | 458 kts | 163° |
| 2026-04-20 12:04 | 2.10838 | 15.91217 | 37810 ft | 458 kts | 163° |
| 2026-04-20 12:04 | 2.04698 | 15.92951 | 37810 ft | 458 kts | 163° |
| 2026-04-20 12:05 | 1.98604 | 15.94671 | 37810 ft | 458 kts | 163° |
| 2026-04-20 12:05 | 1.92427 | 15.96413 | 37807 ft | 458 kts | 163° |
| 2026-04-20 12:06 | 1.86331 | 15.98133 | 37809 ft | 458 kts | 163° |
| 2026-04-20 12:06 | 1.80189 | 15.99863 | 37803 ft | 458 kts | 163° |
| 2026-04-20 12:07 | 1.74044 | 16.01597 | 37807 ft | 460 kts | 162° |
| 2026-04-20 12:07 | 1.67881 | 16.03336 | 37811 ft | 460 kts | 162° |
| 2026-04-20 12:08 | 1.61723 | 16.05074 | 37806 ft | 460 kts | 163° |
| 2026-04-20 12:08 | 1.55564 | 16.06811 | 37806 ft | 460 kts | 163° |
| 2026-04-20 12:09 | 1.49404 | 16.08547 | 37805 ft | 460 kts | 163° |
| 2026-04-20 12:09 | 1.43243 | 16.10283 | 37805 ft | 460 kts | 162° |
| 2026-04-20 12:10 | 1.37084 | 16.12021 | 37807 ft | 460 kts | 162° |
| 2026-04-20 12:10 | 1.30932 | 16.13756 | 37811 ft | 460 kts | 162° |
| 2026-04-20 12:11 | 1.24770 | 16.15493 | 37811 ft | 460 kts | 162° |
| 2026-04-20 12:11 | 1.18612 | 16.17230 | 37807 ft | 460 kts | 162° |
| 2026-04-20 12:12 | 1.12502 | 16.18953 | 37812 ft | 460 kts | 162° |
| 2026-04-20 12:12 | 1.06338 | 16.20692 | 37811 ft | 460 kts | 162° |
| 2026-04-20 12:13 | 1.00170 | 16.22432 | 37806 ft | 461 kts | 162° |
| 2026-04-20 12:13 | 0.94006 | 16.24171 | 37807 ft | 461 kts | 162° |
| 2026-04-20 12:14 | 0.87831 | 16.25909 | 37807 ft | 461 kts | 162° |
| 2026-04-20 12:14 | 0.81664 | 16.27645 | 37805 ft | 461 kts | 162° |
| 2026-04-20 12:15 | 0.75494 | 16.29384 | 37804 ft | 461 kts | 162° |
| 2026-04-20 12:15 | 0.69317 | 16.31126 | 37805 ft | 461 kts | 162° |
| 2026-04-20 12:16 | 0.63141 | 16.32868 | 37805 ft | 461 kts | 162° |
| 2026-04-20 12:16 | 0.56960 | 16.34610 | 37808 ft | 461 kts | 162° |
| 2026-04-20 12:17 | 0.50763 | 16.36353 | 37804 ft | 464 kts | 162° |
| 2026-04-20 12:17 | 0.44552 | 16.38101 | 37805 ft | 464 kts | 162° |
| 2026-04-20 12:18 | 0.38335 | 16.39852 | 37805 ft | 464 kts | 162° |
| 2026-04-20 12:18 | 0.32122 | 16.41603 | 37804 ft | 464 kts | 162° |
| 2026-04-20 12:19 | 0.25912 | 16.43353 | 37808 ft | 464 kts | 163° |
| 2026-04-20 12:19 | 0.19699 | 16.45103 | 37808 ft | 464 kts | 163° |
| 2026-04-20 12:20 | 0.13492 | 16.46852 | 37805 ft | 464 kts | 163° |
| 2026-04-20 12:20 | 0.07329 | 16.48588 | 37805 ft | 463 kts | 163° |
| 2026-04-20 12:21 | 0.01119 | 16.50338 | 37804 ft | 464 kts | 163° |
| 2026-04-20 12:21 | -0.05096 | 16.52092 | 37802 ft | 465 kts | 163° |
| 2026-04-20 12:22 | -0.11328 | 16.53847 | 37800 ft | 466 kts | 163° |
| 2026-04-20 12:22 | -0.17566 | 16.55604 | 37800 ft | 466 kts | 163° |
| 2026-04-20 12:23 | -0.23806 | 16.57362 | 37803 ft | 466 kts | 163° |
| 2026-04-20 12:23 | -0.30042 | 16.59120 | 37805 ft | 466 kts | 163° |
| 2026-04-20 12:24 | -0.35225 | 16.60581 | 37802 ft | 466 kts | 163° |
| 2026-04-20 12:24 | -0.41459 | 16.62339 | 37802 ft | 466 kts | 163° |
| 2026-04-20 12:25 | -0.47697 | 16.64098 | 37797 ft | 466 kts | 163° |
| 2026-04-20 12:25 | -0.53936 | 16.65858 | 37801 ft | 466 kts | 163° |
| 2026-04-20 12:26 | -0.60174 | 16.67605 | 37800 ft | 466 kts | 163° |
| 2026-04-20 12:26 | -0.66420 | 16.69349 | 37799 ft | 466 kts | 163° |
| 2026-04-20 12:27 | -0.72664 | 16.71091 | 37800 ft | 466 kts | 163° |
| 2026-04-20 12:27 | -0.78925 | 16.72849 | 37805 ft | 468 kts | 163° |
| 2026-04-20 12:28 | -0.85151 | 16.74590 | 37803 ft | 468 kts | 163° |
| 2026-04-20 12:28 | -0.91419 | 16.76343 | 37805 ft | 468 kts | 163° |
| 2026-04-20 12:29 | -0.97688 | 16.78097 | 37803 ft | 468 kts | 163° |
| 2026-04-20 12:29 | -1.03957 | 16.79852 | 37805 ft | 468 kts | 163° |
| 2026-04-20 12:30 | -1.10227 | 16.81608 | 37812 ft | 468 kts | 163° |
| 2026-04-20 12:30 | -1.16502 | 16.83366 | 37806 ft | 469 kts | 163° |
| 2026-04-20 12:31 | -1.22788 | 16.85124 | 37812 ft | 469 kts | 163° |
| 2026-04-20 12:31 | -1.29079 | 16.86856 | 37812 ft | 469 kts | 163° |
| 2026-04-20 12:32 | -1.35370 | 16.88586 | 37812 ft | 469 kts | 163° |
| 2026-04-20 12:32 | -1.41664 | 16.90320 | 37812 ft | 469 kts | 163° |
| 2026-04-20 12:33 | -1.47960 | 16.92056 | 37820 ft | 469 kts | 163° |
| 2026-04-20 12:33 | -1.54263 | 16.93795 | 37818 ft | 470 kts | 163° |
| 2026-04-20 12:34 | -1.60573 | 16.95534 | 37818 ft | 470 kts | 163° |
| 2026-04-20 12:34 | -1.66885 | 16.97276 | 37820 ft | 470 kts | 163° |
| 2026-04-20 12:35 | -1.73193 | 16.99017 | 37820 ft | 470 kts | 163° |
| 2026-04-20 12:35 | -1.79494 | 17.00749 | 37818 ft | 470 kts | 165° |
| 2026-04-20 12:36 | -1.85996 | 17.01524 | 37819 ft | 474 kts | 180° |
| 2026-04-20 12:36 | -1.92524 | 17.00608 | 37828 ft | 477 kts | 194° |
| 2026-04-20 12:37 | -1.98648 | 16.98039 | 37827 ft | 480 kts | 209° |
| 2026-04-20 12:37 | -2.04231 | 16.94466 | 37826 ft | 480 kts | 212° |
| 2026-04-20 12:38 | -2.09812 | 16.90798 | 37834 ft | 480 kts | 212° |
| 2026-04-20 12:38 | -2.15403 | 16.87150 | 37831 ft | 480 kts | 212° |
| 2026-04-20 12:39 | -2.23803 | 16.81694 | 37837 ft | 480 kts | 212° |
| 2026-04-20 12:40 | -2.29411 | 16.78051 | 37837 ft | 480 kts | 212° |
| 2026-04-20 12:40 | -2.35025 | 16.74412 | 37849 ft | 481 kts | 212° |
| 2026-04-20 12:41 | -2.40654 | 16.70790 | 37847 ft | 481 kts | 212° |
| 2026-04-20 12:41 | -2.46272 | 16.67180 | 37846 ft | 479 kts | 212° |
| 2026-04-20 12:42 | -2.51883 | 16.63571 | 37846 ft | 479 kts | 212° |
| 2026-04-20 12:42 | -2.57492 | 16.59963 | 37849 ft | 478 kts | 211° |
| 2026-04-20 12:43 | -2.63075 | 16.56370 | 37848 ft | 476 kts | 211° |
| 2026-04-20 12:43 | -2.68611 | 16.52809 | 37850 ft | 476 kts | 211° |
| 2026-04-20 12:44 | -2.74183 | 16.49225 | 37850 ft | 476 kts | 211° |
| 2026-04-20 12:44 | -2.79753 | 16.45642 | 37853 ft | 476 kts | 211° |
| 2026-04-20 12:45 | -2.85324 | 16.42057 | 37851 ft | 476 kts | 211° |
| 2026-04-20 12:45 | -2.90893 | 16.38472 | 37852 ft | 476 kts | 211° |
| 2026-04-20 12:46 | -2.96464 | 16.34887 | 37855 ft | 476 kts | 211° |
| 2026-04-20 12:46 | -3.02041 | 16.31298 | 37859 ft | 477 kts | 212° |
| 2026-04-20 12:47 | -3.07623 | 16.27703 | 37860 ft | 477 kts | 212° |
| 2026-04-20 12:47 | -3.13208 | 16.24105 | 37861 ft | 477 kts | 212° |
| 2026-04-20 12:48 | -3.18786 | 16.20514 | 37867 ft | 477 kts | 212° |
| 2026-04-20 12:48 | -3.24369 | 16.16922 | 37866 ft | 477 kts | 212° |
| 2026-04-20 12:49 | -3.29948 | 16.13329 | 37867 ft | 477 kts | 212° |
| 2026-04-20 12:49 | -3.35542 | 16.09711 | 37866 ft | 479 kts | 212° |
| 2026-04-20 12:50 | -3.41097 | 16.06109 | 37871 ft | 479 kts | 212° |
| 2026-04-20 12:50 | -3.46697 | 16.02481 | 37871 ft | 479 kts | 212° |
| 2026-04-20 12:51 | -3.52297 | 15.98855 | 37869 ft | 479 kts | 212° |
| 2026-04-20 12:51 | -3.57928 | 15.95210 | 37871 ft | 482 kts | 212° |
| 2026-04-20 12:52 | -3.63567 | 15.91557 | 37879 ft | 483 kts | 212° |
| 2026-04-20 12:52 | -3.69203 | 15.87905 | 37884 ft | 482 kts | 212° |
| 2026-04-20 12:53 | -3.74827 | 15.84262 | 37883 ft | 481 kts | 212° |
| 2026-04-20 12:53 | -3.80450 | 15.80618 | 37883 ft | 481 kts | 212° |
| 2026-04-20 12:54 | -3.86071 | 15.76975 | 37885 ft | 481 kts | 212° |
| 2026-04-20 12:54 | -3.91695 | 15.73328 | 37885 ft | 481 kts | 212° |
| 2026-04-20 12:55 | -3.97279 | 15.69708 | 37879 ft | 481 kts | 212° |
| 2026-04-20 12:55 | -4.02896 | 15.66067 | 37879 ft | 481 kts | 212° |
| 2026-04-20 12:56 | -4.08520 | 15.62422 | 37881 ft | 479 kts | 212° |
| 2026-04-20 12:56 | -4.14094 | 15.58806 | 37874 ft | 477 kts | 212° |
| 2026-04-20 12:57 | -4.19667 | 15.55191 | 37875 ft | 477 kts | 212° |
| 2026-04-20 12:57 | -4.25236 | 15.51581 | 37870 ft | 477 kts | 212° |
| 2026-04-20 12:58 | -4.30803 | 15.47969 | 37869 ft | 477 kts | 212° |
| 2026-04-20 12:58 | -4.36694 | 15.44956 | 37869 ft | 476 kts | 200° |
| 2026-04-20 12:59 | -4.43076 | 15.43230 | 37867 ft | 476 kts | 188° |
| 2026-04-20 12:59 | -4.49698 | 15.42861 | 37872 ft | 477 kts | 175° |
| 2026-04-20 13:00 | -4.56305 | 15.43488 | 37868 ft | 477 kts | 173° |
| 2026-04-20 13:00 | -4.62906 | 15.44226 | 37872 ft | 477 kts | 173° |
| 2026-04-20 13:01 | -4.69510 | 15.44946 | 37872 ft | 477 kts | 172° |
| 2026-04-20 13:01 | -4.76112 | 15.45659 | 37868 ft | 477 kts | 173° |
| 2026-04-20 13:02 | -4.82727 | 15.46369 | 37868 ft | 479 kts | 173° |
| 2026-04-20 13:02 | -4.89323 | 15.47072 | 37865 ft | 480 kts | 173° |
| 2026-04-20 13:03 | -4.95964 | 15.47780 | 37867 ft | 480 kts | 173° |
| 2026-04-20 13:03 | -5.02598 | 15.48486 | 37869 ft | 480 kts | 173° |
| 2026-04-20 13:04 | -5.09237 | 15.49198 | 37869 ft | 480 kts | 173° |
| 2026-04-20 13:04 | -5.15878 | 15.49910 | 37857 ft | 482 kts | 174° |
| 2026-04-20 13:05 | -5.22565 | 15.50626 | 37863 ft | 484 kts | 174° |
| 2026-04-20 13:05 | -5.29273 | 15.51336 | 37865 ft | 486 kts | 174° |
| 2026-04-20 13:06 | -5.35990 | 15.52053 | 37867 ft | 485 kts | 174° |
| 2026-04-20 13:06 | -5.42702 | 15.52770 | 37859 ft | 485 kts | 174° |
| 2026-04-20 13:07 | -5.49418 | 15.53490 | 37861 ft | 485 kts | 174° |
| 2026-04-20 13:07 | -5.56077 | 15.54203 | 37863 ft | 477 kts | 174° |
| 2026-04-20 13:08 | -5.62660 | 15.54909 | 37857 ft | 476 kts | 174° |
| 2026-04-20 13:08 | -5.69243 | 15.55616 | 37856 ft | 476 kts | 174° |
| 2026-04-20 13:09 | -5.75822 | 15.56324 | 37855 ft | 476 kts | 174° |
| 2026-04-20 13:09 | -5.82358 | 15.57027 | 37858 ft | 476 kts | 174° |
| 2026-04-20 13:10 | -5.88942 | 15.57727 | 37853 ft | 477 kts | 174° |
| 2026-04-20 13:10 | -5.95571 | 15.58435 | 37850 ft | 480 kts | 173° |
| 2026-04-20 13:11 | -6.02213 | 15.59146 | 37849 ft | 480 kts | 173° |
| 2026-04-20 13:11 | -6.08861 | 15.59861 | 37849 ft | 480 kts | 174° |
| 2026-04-20 13:12 | -6.15502 | 15.60574 | 37847 ft | 480 kts | 173° |
| 2026-04-20 13:12 | -6.22152 | 15.61289 | 37845 ft | 481 kts | 174° |
| 2026-04-20 13:13 | -6.28796 | 15.62007 | 37844 ft | 481 kts | 174° |
| 2026-04-20 13:13 | -6.35456 | 15.62722 | 37841 ft | 481 kts | 174° |
| 2026-04-20 13:14 | -6.42114 | 15.63438 | 37843 ft | 481 kts | 174° |
| 2026-04-20 13:14 | -6.48770 | 15.64153 | 37848 ft | 482 kts | 174° |
| 2026-04-20 13:15 | -6.55444 | 15.64871 | 37838 ft | 483 kts | 174° |
| 2026-04-20 13:15 | -6.61051 | 15.65476 | 37849 ft | 484 kts | 174° |
| 2026-04-20 13:16 | -6.67686 | 15.66192 | 37839 ft | 482 kts | 174° |
| 2026-04-20 13:16 | -6.74341 | 15.66909 | 37837 ft | 482 kts | 174° |
| 2026-04-20 13:17 | -6.81009 | 15.67627 | 37838 ft | 482 kts | 174° |
| 2026-04-20 13:17 | -6.87673 | 15.68345 | 37836 ft | 481 kts | 174° |
| 2026-04-20 13:18 | -6.94341 | 15.69064 | 37840 ft | 482 kts | 174° |
| 2026-04-20 13:18 | -7.00997 | 15.69782 | 37845 ft | 481 kts | 174° |
| 2026-04-20 13:19 | -7.07658 | 15.70501 | 37846 ft | 482 kts | 174° |
| 2026-04-20 13:19 | -7.14316 | 15.71220 | 37845 ft | 481 kts | 174° |
| 2026-04-20 13:20 | -7.20978 | 15.71940 | 37844 ft | 482 kts | 174° |
| 2026-04-20 13:20 | -7.27642 | 15.72660 | 37850 ft | 481 kts | 174° |
| 2026-04-20 13:21 | -7.34304 | 15.73383 | 37848 ft | 483 kts | 174° |
| 2026-04-20 13:21 | -7.40980 | 15.74104 | 37855 ft | 482 kts | 174° |
| 2026-04-20 13:22 | -7.47654 | 15.74827 | 37854 ft | 483 kts | 174° |
| 2026-04-20 13:22 | -7.54331 | 15.75550 | 37850 ft | 482 kts | 174° |
| 2026-04-20 13:23 | -7.60952 | 15.76270 | 37848 ft | 482 kts | 174° |
| 2026-04-20 13:23 | -7.67632 | 15.76992 | 37852 ft | 483 kts | 174° |
| 2026-04-20 13:24 | -7.74306 | 15.77707 | 37858 ft | 482 kts | 174° |
| 2026-04-20 13:24 | -7.80988 | 15.78427 | 37849 ft | 483 kts | 174° |
| 2026-04-20 13:25 | -7.87655 | 15.79147 | 37848 ft | 482 kts | 174° |
| 2026-04-20 13:25 | -7.94328 | 15.79871 | 37856 ft | 482 kts | 174° |
| 2026-04-20 13:26 | -8.00988 | 15.80593 | 37853 ft | 481 kts | 174° |
| 2026-04-20 13:26 | -8.07673 | 15.81319 | 37857 ft | 486 kts | 174° |
| 2026-04-20 13:27 | -8.14383 | 15.82044 | 37859 ft | 484 kts | 174° |
| 2026-04-20 13:27 | -8.21089 | 15.82778 | 37855 ft | 486 kts | 174° |
| 2026-04-20 13:28 | -8.27799 | 15.83511 | 37858 ft | 484 kts | 174° |
| 2026-04-20 13:28 | -8.34496 | 15.84247 | 37858 ft | 485 kts | 174° |
| 2026-04-20 13:29 | -8.41210 | 15.84973 | 37864 ft | 484 kts | 174° |
| 2026-04-20 13:29 | -8.47904 | 15.85695 | 37858 ft | 484 kts | 174° |
| 2026-04-20 13:30 | -8.54600 | 15.86423 | 37856 ft | 484 kts | 174° |
| 2026-04-20 13:30 | -8.61291 | 15.87151 | 37853 ft | 484 kts | 174° |
| 2026-04-20 13:31 | -8.67992 | 15.87882 | 37850 ft | 484 kts | 174° |
| 2026-04-20 13:31 | -8.74678 | 15.88612 | 37853 ft | 483 kts | 174° |
| 2026-04-20 13:32 | -8.81355 | 15.89337 | 37851 ft | 487 kts | 174° |
| 2026-04-20 13:32 | -8.88098 | 15.90067 | 37850 ft | 487 kts | 174° |
| 2026-04-20 13:33 | -8.94846 | 15.90800 | 37843 ft | 488 kts | 174° |
| 2026-04-20 13:33 | -9.01588 | 15.91535 | 37846 ft | 487 kts | 174° |
| 2026-04-20 13:34 | -9.08340 | 15.92271 | 37841 ft | 488 kts | 174° |
| 2026-04-20 13:34 | -9.15093 | 15.93013 | 37839 ft | 488 kts | 174° |
| 2026-04-20 13:35 | -9.21846 | 15.93749 | 37836 ft | 488 kts | 174° |
| 2026-04-20 13:35 | -9.28597 | 15.94485 | 37834 ft | 488 kts | 174° |
| 2026-04-20 13:36 | -9.35349 | 15.95225 | 37840 ft | 488 kts | 174° |
| 2026-04-20 13:36 | -9.42108 | 15.95965 | 37833 ft | 488 kts | 174° |
| 2026-04-20 13:37 | -9.48859 | 15.96703 | 37834 ft | 488 kts | 174° |
| 2026-04-20 13:37 | -9.55610 | 15.97438 | 37833 ft | 488 kts | 175° |
| 2026-04-20 13:38 | -9.62358 | 15.98174 | 37840 ft | 488 kts | 175° |
| 2026-04-20 13:38 | -9.69068 | 15.98908 | 37835 ft | 488 kts | 174° |
| 2026-04-20 13:39 | -9.75820 | 15.99648 | 37833 ft | 488 kts | 174° |
| 2026-04-20 13:39 | -9.82579 | 16.00389 | 37843 ft | 486 kts | 174° |
| 2026-04-20 13:40 | -9.89290 | 16.01129 | 37848 ft | 486 kts | 175° |
| 2026-04-20 13:40 | -9.96030 | 16.01869 | 37832 ft | 486 kts | 175° |
| 2026-04-20 13:41 | -10.02753 | 16.02609 | 37837 ft | 486 kts | 175° |
| 2026-04-20 13:41 | -10.09477 | 16.03350 | 37843 ft | 486 kts | 175° |
| 2026-04-20 13:42 | -10.16192 | 16.04135 | 37840 ft | 486 kts | 174° |
| 2026-04-20 13:42 | -10.26273 | 16.05343 | 37864 ft | 486 kts | 174° |
| 2026-04-20 13:43 | -10.32988 | 16.06146 | 37865 ft | 486 kts | 174° |
| 2026-04-20 13:43 | -10.39711 | 16.06950 | 37858 ft | 486 kts | 174° |
| 2026-04-20 13:44 | -10.46423 | 16.07751 | 37866 ft | 486 kts | 174° |
| 2026-04-20 13:44 | -10.53140 | 16.08554 | 37865 ft | 486 kts | 174° |
| 2026-04-20 13:45 | -10.59859 | 16.09357 | 37880 ft | 486 kts | 174° |
| 2026-04-20 13:45 | -10.66579 | 16.10162 | 37881 ft | 486 kts | 174° |
| 2026-04-20 13:46 | -10.73294 | 16.10966 | 37872 ft | 486 kts | 174° |
| 2026-04-20 13:46 | -10.80015 | 16.11773 | 37889 ft | 487 kts | 174° |
| 2026-04-20 13:47 | -10.86729 | 16.12578 | 37886 ft | 486 kts | 174° |
| 2026-04-20 13:47 | -10.93443 | 16.13371 | 37900 ft | 486 kts | 175° |
| 2026-04-20 13:48 | -11.00163 | 16.14072 | 37897 ft | 486 kts | 175° |
| 2026-04-20 13:48 | -11.06881 | 16.14765 | 37894 ft | 485 kts | 175° |
| 2026-04-20 13:49 | -11.13557 | 16.15463 | 37890 ft | 485 kts | 175° |
| 2026-04-20 13:49 | -11.20279 | 16.16170 | 37894 ft | 485 kts | 175° |
| 2026-04-20 13:50 | -11.27001 | 16.16878 | 37894 ft | 486 kts | 175° |
| 2026-04-20 13:50 | -11.33726 | 16.17587 | 37895 ft | 486 kts | 175° |
| 2026-04-20 13:51 | -11.40440 | 16.18296 | 37894 ft | 486 kts | 175° |
| 2026-04-20 13:51 | -11.47168 | 16.19006 | 37890 ft | 486 kts | 175° |
| 2026-04-20 13:52 | -11.53883 | 16.19715 | 37889 ft | 486 kts | 175° |
| 2026-04-20 13:52 | -11.60609 | 16.20428 | 37890 ft | 485 kts | 175° |
| 2026-04-20 13:53 | -11.67323 | 16.21138 | 37887 ft | 485 kts | 175° |
| 2026-04-20 13:53 | -11.74042 | 16.21848 | 37887 ft | 485 kts | 175° |
| 2026-04-20 13:54 | -11.80753 | 16.22558 | 37887 ft | 485 kts | 175° |
| 2026-04-20 13:54 | -11.87471 | 16.23269 | 37883 ft | 485 kts | 175° |
| 2026-04-20 13:55 | -11.94193 | 16.23982 | 37890 ft | 485 kts | 175° |
| 2026-04-20 13:55 | -12.00846 | 16.24689 | 37891 ft | 484 kts | 175° |
| 2026-04-20 13:56 | -12.07540 | 16.25399 | 37890 ft | 484 kts | 175° |
| 2026-04-20 13:56 | -12.14241 | 16.26112 | 37898 ft | 484 kts | 175° |
| 2026-04-20 13:57 | -12.20935 | 16.26825 | 37892 ft | 484 kts | 175° |
| 2026-04-20 13:57 | -12.27633 | 16.27541 | 37900 ft | 484 kts | 175° |
| 2026-04-20 13:58 | -12.34343 | 16.28272 | 37899 ft | 485 kts | 175° |
| 2026-04-20 13:58 | -12.41059 | 16.29006 | 37899 ft | 485 kts | 175° |
| 2026-04-20 13:59 | -12.47769 | 16.29741 | 37905 ft | 485 kts | 175° |
| 2026-04-20 13:59 | -12.54486 | 16.30477 | 37902 ft | 485 kts | 175° |
| 2026-04-20 14:00 | -12.61203 | 16.31214 | 37910 ft | 486 kts | 175° |
| 2026-04-20 14:00 | -12.67928 | 16.31954 | 37911 ft | 487 kts | 176° |
| 2026-04-20 14:01 | -12.74674 | 16.32693 | 37902 ft | 487 kts | 176° |
| 2026-04-20 14:01 | -12.81419 | 16.33433 | 37907 ft | 487 kts | 176° |
| 2026-04-20 14:02 | -12.88163 | 16.34174 | 37899 ft | 487 kts | 176° |
| 2026-04-20 14:02 | -12.94907 | 16.34915 | 37909 ft | 487 kts | 175° |
| 2026-04-20 14:03 | -13.01582 | 16.35651 | 37902 ft | 487 kts | 176° |
| 2026-04-20 14:03 | -13.08320 | 16.36392 | 37899 ft | 487 kts | 176° |
| 2026-04-20 14:04 | -13.15052 | 16.37133 | 37893 ft | 487 kts | 176° |
| 2026-04-20 14:04 | -13.21792 | 16.37876 | 37892 ft | 487 kts | 176° |
| 2026-04-20 14:05 | -13.28528 | 16.38619 | 37890 ft | 487 kts | 176° |
| 2026-04-20 14:05 | -13.34122 | 16.39240 | 37895 ft | 487 kts | 176° |
| 2026-04-20 14:06 | -13.40913 | 16.39990 | 37892 ft | 487 kts | 176° |
| 2026-04-20 14:06 | -13.47662 | 16.40733 | 37891 ft | 487 kts | 176° |
| 2026-04-20 14:07 | -13.54358 | 16.41473 | 37887 ft | 487 kts | 176° |
| 2026-04-20 14:07 | -13.61096 | 16.42220 | 37889 ft | 487 kts | 176° |
| 2026-04-20 14:08 | -13.67842 | 16.42971 | 37892 ft | 488 kts | 176° |
| 2026-04-20 14:08 | -13.74587 | 16.43719 | 37889 ft | 488 kts | 176° |
| 2026-04-20 14:09 | -13.81338 | 16.44460 | 37886 ft | 488 kts | 176° |
| 2026-04-20 14:09 | -13.88092 | 16.45204 | 37886 ft | 488 kts | 176° |
| 2026-04-20 14:10 | -13.94834 | 16.45950 | 37884 ft | 488 kts | 176° |
| 2026-04-20 14:10 | -14.01646 | 16.46704 | 37893 ft | 498 kts | 177° |
| 2026-04-20 14:11 | -14.08555 | 16.47472 | 37884 ft | 500 kts | 177° |
| 2026-04-20 14:11 | -14.15485 | 16.48240 | 37882 ft | 501 kts | 177° |
| 2026-04-20 14:12 | -14.22409 | 16.49010 | 37877 ft | 501 kts | 177° |
| 2026-04-20 14:12 | -14.29332 | 16.49780 | 37876 ft | 501 kts | 177° |
| 2026-04-20 14:13 | -14.36266 | 16.50552 | 37884 ft | 501 kts | 177° |
| 2026-04-20 14:13 | -14.43237 | 16.51329 | 37878 ft | 507 kts | 177° |
| 2026-04-20 14:14 | -14.50261 | 16.52110 | 37877 ft | 508 kts | 177° |
| 2026-04-20 14:14 | -14.57294 | 16.52894 | 37877 ft | 508 kts | 177° |
| 2026-04-20 14:15 | -14.64324 | 16.53679 | 37878 ft | 508 kts | 177° |
| 2026-04-20 14:15 | -14.71357 | 16.54464 | 37879 ft | 508 kts | 177° |
| 2026-04-20 14:16 | -14.78396 | 16.55250 | 37872 ft | 508 kts | 177° |
| 2026-04-20 14:16 | -14.85429 | 16.56037 | 37871 ft | 508 kts | 177° |
| 2026-04-20 14:17 | -14.92461 | 16.56825 | 37869 ft | 508 kts | 177° |
| 2026-04-20 14:17 | -14.99490 | 16.57613 | 37868 ft | 508 kts | 177° |
| 2026-04-20 14:18 | -15.06524 | 16.58405 | 37868 ft | 509 kts | 177° |
| 2026-04-20 14:18 | -15.13568 | 16.59196 | 37875 ft | 509 kts | 177° |
| 2026-04-20 14:19 | -15.20565 | 16.59982 | 37860 ft | 509 kts | 177° |
| 2026-04-20 14:19 | -15.27602 | 16.60778 | 37862 ft | 509 kts | 177° |
| 2026-04-20 14:20 | -15.34652 | 16.61581 | 37863 ft | 509 kts | 177° |
| 2026-04-20 14:20 | -15.41702 | 16.62389 | 37871 ft | 511 kts | 178° |
| 2026-04-20 14:21 | -15.48771 | 16.63196 | 37866 ft | 511 kts | 178° |
| 2026-04-20 14:21 | -15.55845 | 16.64005 | 37856 ft | 511 kts | 178° |
| 2026-04-20 14:22 | -15.62916 | 16.64815 | 37860 ft | 511 kts | 178° |
| 2026-04-20 14:22 | -15.69994 | 16.65626 | 37866 ft | 511 kts | 178° |
| 2026-04-20 14:23 | -15.77072 | 16.66439 | 37868 ft | 512 kts | 178° |
| 2026-04-20 14:23 | -15.84151 | 16.67251 | 37854 ft | 512 kts | 178° |
| 2026-04-20 14:24 | -15.91238 | 16.68065 | 37858 ft | 512 kts | 178° |
| 2026-04-20 14:24 | -15.98327 | 16.68880 | 37859 ft | 512 kts | 178° |
| 2026-04-20 14:25 | -16.05403 | 16.69694 | 37866 ft | 512 kts | 178° |
| 2026-04-20 14:25 | -16.12484 | 16.70510 | 37855 ft | 512 kts | 178° |
| 2026-04-20 14:26 | -16.19565 | 16.71325 | 37860 ft | 512 kts | 178° |
| 2026-04-20 14:26 | -16.26645 | 16.72141 | 37857 ft | 512 kts | 178° |
| 2026-04-20 14:27 | -16.33681 | 16.72953 | 37854 ft | 512 kts | 178° |
| 2026-04-20 14:27 | -16.40753 | 16.73771 | 37858 ft | 512 kts | 178° |
| 2026-04-20 14:28 | -16.47834 | 16.74589 | 37872 ft | 511 kts | 178° |
| 2026-04-20 14:28 | -16.54900 | 16.75405 | 37859 ft | 511 kts | 178° |
| 2026-04-20 14:29 | -16.61979 | 16.76224 | 37871 ft | 512 kts | 178° |
| 2026-04-20 14:29 | -16.69052 | 16.77043 | 37857 ft | 512 kts | 178° |
| 2026-04-20 14:30 | -16.76136 | 16.77866 | 37862 ft | 513 kts | 178° |
| 2026-04-20 14:30 | -16.83235 | 16.78688 | 37862 ft | 513 kts | 178° |
| 2026-04-20 14:31 | -16.90331 | 16.79511 | 37861 ft | 513 kts | 178° |
| 2026-04-20 14:31 | -16.97433 | 16.80337 | 37861 ft | 513 kts | 178° |
| 2026-04-20 14:32 | -17.04516 | 16.81161 | 37873 ft | 514 kts | 178° |
| 2026-04-20 14:32 | -17.11640 | 16.81992 | 37862 ft | 515 kts | 178° |
| 2026-04-20 14:33 | -17.18714 | 16.82815 | 37862 ft | 515 kts | 178° |
| 2026-04-20 14:33 | -17.25838 | 16.83647 | 37861 ft | 515 kts | 178° |
| 2026-04-20 14:34 | -17.32967 | 16.84482 | 37860 ft | 515 kts | 178° |
| 2026-04-20 14:34 | -17.40093 | 16.85317 | 37867 ft | 516 kts | 179° |
| 2026-04-20 14:35 | -17.47230 | 16.86135 | 37859 ft | 516 kts | 179° |
| 2026-04-20 14:35 | -17.54365 | 16.86953 | 37858 ft | 516 kts | 179° |
| 2026-04-20 14:36 | -17.61501 | 16.87776 | 37858 ft | 516 kts | 179° |
| 2026-04-20 14:36 | -17.68632 | 16.88602 | 37858 ft | 516 kts | 179° |
| 2026-04-20 14:37 | -17.75773 | 16.89433 | 37858 ft | 516 kts | 179° |
| 2026-04-20 14:37 | -17.82908 | 16.90260 | 37856 ft | 516 kts | 179° |
| 2026-04-20 14:38 | -17.90050 | 16.91088 | 37864 ft | 516 kts | 179° |
| 2026-04-20 14:38 | -17.97190 | 16.91917 | 37858 ft | 516 kts | 179° |
| 2026-04-20 14:39 | -18.04322 | 16.92747 | 37858 ft | 516 kts | 179° |
| 2026-04-20 14:39 | -18.11462 | 16.93578 | 37856 ft | 516 kts | 179° |
| 2026-04-20 14:40 | -18.18605 | 16.94410 | 37856 ft | 516 kts | 179° |
| 2026-04-20 14:40 | -18.25742 | 16.95243 | 37850 ft | 516 kts | 179° |
| 2026-04-20 14:41 | -18.32883 | 16.96076 | 37853 ft | 516 kts | 179° |
| 2026-04-20 14:41 | -18.40024 | 16.96914 | 37853 ft | 516 kts | 179° |
| 2026-04-20 14:42 | -18.47173 | 16.97748 | 37848 ft | 516 kts | 179° |
| 2026-04-20 14:42 | -18.54314 | 16.98582 | 37847 ft | 516 kts | 179° |
| 2026-04-20 14:43 | -18.61456 | 16.99418 | 37844 ft | 516 kts | 179° |
| 2026-04-20 14:43 | -18.68601 | 17.00257 | 37863 ft | 517 kts | 180° |
| 2026-04-20 14:44 | -18.75703 | 17.01093 | 37850 ft | 518 kts | 180° |
| 2026-04-20 14:44 | -18.82871 | 17.01933 | 37847 ft | 518 kts | 180° |
| 2026-04-20 14:45 | -18.90035 | 17.02774 | 37846 ft | 518 kts | 180° |
| 2026-04-20 14:45 | -18.97194 | 17.03618 | 37847 ft | 518 kts | 180° |
| 2026-04-20 14:46 | -19.04353 | 17.04465 | 37853 ft | 518 kts | 180° |
| 2026-04-20 14:46 | -19.11518 | 17.05310 | 37850 ft | 518 kts | 180° |
| 2026-04-20 14:47 | -19.18689 | 17.06159 | 37855 ft | 519 kts | 180° |
| 2026-04-20 14:48 | -19.29444 | 17.07464 | 37857 ft | 519 kts | 180° |
| 2026-04-20 14:48 | -19.36620 | 17.08341 | 37867 ft | 519 kts | 180° |
| 2026-04-20 14:49 | -19.43795 | 17.09216 | 37867 ft | 519 kts | 180° |
| 2026-04-20 14:49 | -19.50973 | 17.10093 | 37870 ft | 519 kts | 180° |
| 2026-04-20 14:50 | -19.58150 | 17.10970 | 37866 ft | 519 kts | 180° |
| 2026-04-20 14:50 | -19.65332 | 17.11850 | 37890 ft | 519 kts | 180° |
| 2026-04-20 14:51 | -19.72508 | 17.12732 | 37870 ft | 519 kts | 180° |
| 2026-04-20 14:51 | -19.79679 | 17.13609 | 37868 ft | 519 kts | 180° |
| 2026-04-20 14:52 | -19.86810 | 17.14483 | 37870 ft | 519 kts | 180° |
| 2026-04-20 14:52 | -19.93977 | 17.15363 | 37860 ft | 519 kts | 180° |
| 2026-04-20 14:53 | -20.01147 | 17.16248 | 37868 ft | 520 kts | 181° |
| 2026-04-20 14:53 | -20.08337 | 17.17132 | 37858 ft | 520 kts | 181° |
| 2026-04-20 14:54 | -20.14303 | 17.17865 | 37854 ft | 520 kts | 181° |
| 2026-04-20 14:54 | -20.21491 | 17.18751 | 37841 ft | 520 kts | 181° |
| 2026-04-20 14:55 | -20.28682 | 17.19639 | 37851 ft | 520 kts | 181° |
| 2026-04-20 14:55 | -20.35870 | 17.20529 | 37838 ft | 521 kts | 181° |
| 2026-04-20 14:56 | -20.43071 | 17.21418 | 37824 ft | 521 kts | 181° |
| 2026-04-20 14:56 | -20.50268 | 17.22309 | 37825 ft | 521 kts | 181° |
| 2026-04-20 14:57 | -20.57469 | 17.23202 | 37815 ft | 521 kts | 181° |
| 2026-04-20 14:57 | -20.64668 | 17.24098 | 37823 ft | 521 kts | 181° |
| 2026-04-20 14:58 | -20.71870 | 17.24993 | 37814 ft | 521 kts | 181° |
| 2026-04-20 14:58 | -20.79077 | 17.25891 | 37803 ft | 521 kts | 181° |
| 2026-04-20 14:59 | -20.86280 | 17.26782 | 37810 ft | 521 kts | 181° |
| 2026-04-20 14:59 | -20.93486 | 17.27670 | 37812 ft | 521 kts | 181° |
| 2026-04-20 15:00 | -21.00687 | 17.28562 | 37801 ft | 522 kts | 181° |
| 2026-04-20 15:00 | -21.07855 | 17.29453 | 37800 ft | 522 kts | 181° |
| 2026-04-20 15:01 | -21.15117 | 17.30356 | 37811 ft | 522 kts | 181° |
| 2026-04-20 15:01 | -21.22286 | 17.31250 | 37806 ft | 522 kts | 181° |
| 2026-04-20 15:02 | -21.29499 | 17.32150 | 37815 ft | 522 kts | 181° |
| 2026-04-20 15:02 | -21.36718 | 17.33051 | 37819 ft | 522 kts | 181° |
| 2026-04-20 15:03 | -21.43932 | 17.33953 | 37828 ft | 522 kts | 181° |
| 2026-04-20 15:03 | -21.51148 | 17.34856 | 37825 ft | 522 kts | 181° |
| 2026-04-20 15:04 | -21.58368 | 17.35762 | 37836 ft | 523 kts | 181° |
| 2026-04-20 15:04 | -21.65607 | 17.36668 | 37840 ft | 524 kts | 181° |
| 2026-04-20 15:05 | -21.72842 | 17.37576 | 37838 ft | 524 kts | 181° |
| 2026-04-20 15:05 | -21.80073 | 17.38484 | 37847 ft | 524 kts | 181° |
| 2026-04-20 15:06 | -21.87314 | 17.39396 | 37862 ft | 524 kts | 181° |
| 2026-04-20 15:06 | -21.94569 | 17.40311 | 37848 ft | 524 kts | 181° |
| 2026-04-20 15:07 | -22.01758 | 17.41216 | 37852 ft | 524 kts | 181° |
| 2026-04-20 15:07 | -22.08999 | 17.42129 | 37868 ft | 524 kts | 181° |
| 2026-04-20 15:08 | -22.16246 | 17.43045 | 37942 ft | 525 kts | 182° |
| 2026-04-20 15:08 | -22.23512 | 17.43965 | 37977 ft | 526 kts | 182° |
| 2026-04-20 15:09 | -22.30791 | 17.44886 | 38037 ft | 526 kts | 182° |
| 2026-04-20 15:09 | -22.38064 | 17.45810 | 38106 ft | 527 kts | 182° |
| 2026-04-20 15:10 | -22.45340 | 17.46736 | 38114 ft | 527 kts | 182° |
| 2026-04-20 15:10 | -22.52624 | 17.47771 | 37871 ft | 529 kts | 180° |
| 2026-04-20 15:11 | -22.59914 | 17.48990 | 37872 ft | 530 kts | 180° |
| 2026-04-20 15:11 | -22.67206 | 17.50210 | 37869 ft | 530 kts | 180° |
| 2026-04-20 15:12 | -22.74491 | 17.51413 | 37863 ft | 530 kts | 180° |
| 2026-04-20 15:12 | -22.81788 | 17.52620 | 37873 ft | 531 kts | 180° |
| 2026-04-20 15:13 | -22.89093 | 17.53823 | 37857 ft | 531 kts | 180° |
| 2026-04-20 15:13 | -22.96402 | 17.55026 | 37838 ft | 531 kts | 180° |
| 2026-04-20 15:14 | -23.03659 | 17.56223 | 37846 ft | 531 kts | 180° |
| 2026-04-20 15:14 | -23.10963 | 17.57432 | 37859 ft | 531 kts | 180° |
| 2026-04-20 15:15 | -23.18281 | 17.58641 | 37847 ft | 532 kts | 180° |
| 2026-04-20 15:15 | -23.25597 | 17.59851 | 37850 ft | 532 kts | 180° |
| 2026-04-20 15:16 | -23.32915 | 17.61052 | 37837 ft | 531 kts | 180° |
| 2026-04-20 15:16 | -23.40224 | 17.62255 | 37862 ft | 531 kts | 181° |
| 2026-04-20 15:17 | -23.47541 | 17.63462 | 37855 ft | 531 kts | 181° |
| 2026-04-20 15:17 | -23.54851 | 17.64662 | 37858 ft | 531 kts | 181° |
| 2026-04-20 15:18 | -23.62164 | 17.65862 | 37873 ft | 531 kts | 181° |
| 2026-04-20 15:18 | -23.69479 | 17.67070 | 37913 ft | 532 kts | 181° |
| 2026-04-20 15:19 | -23.76811 | 17.68279 | 37879 ft | 533 kts | 181° |
| 2026-04-20 15:19 | -23.84155 | 17.69472 | 37872 ft | 533 kts | 181° |
| 2026-04-20 15:20 | -23.91500 | 17.70661 | 37884 ft | 533 kts | 181° |
| 2026-04-20 15:20 | -23.98793 | 17.71849 | 37917 ft | 534 kts | 181° |
| 2026-04-20 15:21 | -24.06153 | 17.73050 | 37891 ft | 536 kts | 181° |
| 2026-04-20 15:21 | -24.13528 | 17.74254 | 37888 ft | 536 kts | 181° |
| 2026-04-20 15:22 | -24.20901 | 17.75458 | 37883 ft | 536 kts | 181° |
| 2026-04-20 15:22 | -24.28287 | 17.76669 | 37894 ft | 536 kts | 181° |
| 2026-04-20 15:23 | -24.35664 | 17.77881 | 37901 ft | 536 kts | 181° |
| 2026-04-20 15:23 | -24.43046 | 17.79096 | 37901 ft | 536 kts | 181° |
| 2026-04-20 15:24 | -24.50429 | 17.80308 | 37911 ft | 536 kts | 181° |
| 2026-04-20 15:24 | -24.57808 | 17.81491 | 37928 ft | 536 kts | 181° |
| 2026-04-20 15:25 | -24.65192 | 17.82672 | 37922 ft | 536 kts | 181° |
| 2026-04-20 15:25 | -24.72579 | 17.83859 | 37925 ft | 536 kts | 181° |
| 2026-04-20 15:26 | -24.79964 | 17.85050 | 37930 ft | 537 kts | 181° |
| 2026-04-20 15:26 | -24.87355 | 17.86245 | 37963 ft | 537 kts | 181° |
| 2026-04-20 15:27 | -24.94755 | 17.87442 | 37936 ft | 538 kts | 181° |
| 2026-04-20 15:27 | -25.02115 | 17.88634 | 37932 ft | 538 kts | 181° |
| 2026-04-20 15:28 | -25.09521 | 17.89837 | 37937 ft | 538 kts | 181° |
| 2026-04-20 15:28 | -25.16931 | 17.91046 | 37969 ft | 538 kts | 181° |
| 2026-04-20 15:29 | -25.24342 | 17.92260 | 37944 ft | 538 kts | 181° |
| 2026-04-20 15:29 | -25.31754 | 17.93475 | 37944 ft | 538 kts | 181° |
| 2026-04-20 15:30 | -25.39162 | 17.94692 | 37945 ft | 538 kts | 181° |
| 2026-04-20 15:30 | -25.46578 | 17.95912 | 37970 ft | 539 kts | 181° |
| 2026-04-20 15:31 | -25.53991 | 17.97132 | 37948 ft | 539 kts | 181° |
| 2026-04-20 15:31 | -25.61416 | 17.98355 | 37951 ft | 539 kts | 181° |
| 2026-04-20 15:32 | -25.68840 | 17.99581 | 37949 ft | 539 kts | 181° |
| 2026-04-20 15:32 | -25.76253 | 18.00807 | 37985 ft | 540 kts | 181° |
| 2026-04-20 15:33 | -25.83690 | 18.02037 | 37961 ft | 540 kts | 181° |
| 2026-04-20 15:33 | -25.91120 | 18.03267 | 37962 ft | 540 kts | 181° |
| 2026-04-20 15:34 | -25.98509 | 18.04493 | 37965 ft | 540 kts | 181° |
| 2026-04-20 15:34 | -26.05938 | 18.05728 | 37981 ft | 541 kts | 181° |
| 2026-04-20 15:35 | -26.13379 | 18.06965 | 37977 ft | 541 kts | 181° |
| 2026-04-20 15:35 | -26.20821 | 18.08205 | 37978 ft | 541 kts | 181° |
| 2026-04-20 15:36 | -26.28260 | 18.09445 | 37974 ft | 541 kts | 181° |
| 2026-04-20 15:36 | -26.35697 | 18.10687 | 37987 ft | 540 kts | 181° |
| 2026-04-20 15:37 | -26.43129 | 18.11929 | 37982 ft | 540 kts | 181° |
| 2026-04-20 15:37 | -26.50562 | 18.13172 | 37979 ft | 540 kts | 181° |
| 2026-04-20 15:38 | -26.57998 | 18.14419 | 37975 ft | 540 kts | 181° |
| 2026-04-20 15:38 | -26.65432 | 18.15668 | 37984 ft | 540 kts | 182° |
| 2026-04-20 15:39 | -26.72857 | 18.16915 | 37980 ft | 540 kts | 181° |
| 2026-04-20 15:39 | -26.80286 | 18.18164 | 37982 ft | 540 kts | 181° |
| 2026-04-20 15:40 | -26.87723 | 18.19418 | 38019 ft | 540 kts | 181° |
| 2026-04-20 15:40 | -26.95133 | 18.20671 | 37992 ft | 539 kts | 182° |
| 2026-04-20 15:41 | -27.02495 | 18.21914 | 37985 ft | 538 kts | 182° |
| 2026-04-20 15:41 | -27.09902 | 18.23166 | 37989 ft | 539 kts | 182° |
| 2026-04-20 15:42 | -27.17314 | 18.24423 | 37994 ft | 539 kts | 182° |
| 2026-04-20 15:42 | -27.24723 | 18.25681 | 37994 ft | 539 kts | 182° |
| 2026-04-20 15:43 | -27.32134 | 18.26941 | 37999 ft | 539 kts | 182° |
| 2026-04-20 15:43 | -27.39548 | 18.28205 | 38000 ft | 539 kts | 182° |
| 2026-04-20 15:44 | -27.46954 | 18.29469 | 38020 ft | 537 kts | 182° |
| 2026-04-20 15:44 | -27.54333 | 18.30582 | 38006 ft | 533 kts | 184° |
| 2026-04-20 15:45 | -27.60458 | 18.31369 | 37992 ft | 533 kts | 184° |
| 2026-04-20 15:45 | -27.64144 | 18.31838 | 37736 ft | 533 kts | 184° |
| 2026-04-20 15:45 | -27.67834 | 18.32311 | 37469 ft | 533 kts | 184° |
| 2026-04-20 15:45 | -27.71520 | 18.32788 | 37253 ft | 533 kts | 184° |
| 2026-04-20 15:46 | -27.75201 | 18.33265 | 36987 ft | 532 kts | 184° |
| 2026-04-20 15:46 | -27.78876 | 18.33745 | 36733 ft | 532 kts | 184° |
| 2026-04-20 15:46 | -27.82552 | 18.34226 | 36478 ft | 532 kts | 184° |
| 2026-04-20 15:46 | -27.86231 | 18.34708 | 36226 ft | 532 kts | 184° |
| 2026-04-20 15:47 | -27.89902 | 18.35189 | 35975 ft | 532 kts | 184° |
| 2026-04-20 15:47 | -27.93582 | 18.35672 | 35724 ft | 532 kts | 184° |
| 2026-04-20 15:47 | -27.97258 | 18.36155 | 35485 ft | 532 kts | 184° |
| 2026-04-20 15:47 | -28.00930 | 18.36636 | 35286 ft | 532 kts | 183° |
| 2026-04-20 15:48 | -28.04604 | 18.37119 | 35043 ft | 531 kts | 183° |
| 2026-04-20 15:48 | -28.08276 | 18.37603 | 34812 ft | 531 kts | 183° |
| 2026-04-20 15:48 | -28.11943 | 18.38087 | 34582 ft | 531 kts | 183° |
| 2026-04-20 15:48 | -28.15609 | 18.38570 | 34349 ft | 531 kts | 183° |
| 2026-04-20 15:49 | -28.19278 | 18.39054 | 34117 ft | 531 kts | 183° |
| 2026-04-20 15:49 | -28.22952 | 18.39539 | 34003 ft | 531 kts | 183° |
| 2026-04-20 15:49 | -28.26624 | 18.40025 | 34002 ft | 531 kts | 183° |
| 2026-04-20 15:50 | -28.33959 | 18.40991 | 33821 ft | 531 kts | 182° |
| 2026-04-20 15:50 | -28.37630 | 18.41477 | 33557 ft | 531 kts | 182° |
| 2026-04-20 15:50 | -28.41247 | 18.41957 | 33291 ft | 531 kts | 182° |
| 2026-04-20 15:50 | -28.44925 | 18.42444 | 33037 ft | 531 kts | 182° |
| 2026-04-20 15:51 | -28.48598 | 18.42931 | 32776 ft | 532 kts | 182° |
| 2026-04-20 15:51 | -28.52271 | 18.43419 | 32507 ft | 532 kts | 182° |
| 2026-04-20 15:51 | -28.55949 | 18.43908 | 32290 ft | 533 kts | 182° |
| 2026-04-20 15:51 | -28.59632 | 18.44398 | 32037 ft | 533 kts | 182° |
| 2026-04-20 15:52 | -28.63314 | 18.44888 | 31793 ft | 533 kts | 182° |
| 2026-04-20 15:52 | -28.66998 | 18.45379 | 31546 ft | 533 kts | 181° |
| 2026-04-20 15:52 | -28.70686 | 18.45871 | 31298 ft | 533 kts | 181° |
| 2026-04-20 15:53 | -28.78055 | 18.46856 | 31012 ft | 533 kts | 181° |
| 2026-04-20 15:53 | -28.81739 | 18.47351 | 31041 ft | 533 kts | 181° |
| 2026-04-20 15:53 | -28.89112 | 18.48340 | 31021 ft | 533 kts | 181° |
| 2026-04-20 15:54 | -28.96487 | 18.49318 | 31015 ft | 533 kts | 182° |
| 2026-04-20 15:54 | -29.03857 | 18.50297 | 31018 ft | 533 kts | 182° |
| 2026-04-20 15:55 | -29.11234 | 18.51283 | 31056 ft | 534 kts | 182° |
| 2026-04-20 15:55 | -29.18605 | 18.52270 | 31033 ft | 534 kts | 182° |
| 2026-04-20 15:56 | -29.25988 | 18.53259 | 31027 ft | 534 kts | 182° |
| 2026-04-20 15:56 | -29.33362 | 18.54250 | 31036 ft | 534 kts | 182° |
| 2026-04-20 15:57 | -29.40742 | 18.55246 | 31046 ft | 534 kts | 182° |
| 2026-04-20 15:57 | -29.48119 | 18.56336 | 31038 ft | 538 kts | 179° |
| 2026-04-20 15:58 | -29.55492 | 18.58109 | 31038 ft | 542 kts | 175° |
| 2026-04-20 15:58 | -29.62799 | 18.60056 | 31052 ft | 543 kts | 175° |
| 2026-04-20 15:59 | -29.70160 | 18.62022 | 31045 ft | 542 kts | 175° |
| 2026-04-20 15:59 | -29.77517 | 18.63971 | 31039 ft | 542 kts | 175° |
| 2026-04-20 16:00 | -29.84871 | 18.65917 | 31042 ft | 542 kts | 175° |
| 2026-04-20 16:00 | -29.92233 | 18.67866 | 31042 ft | 543 kts | 175° |
| 2026-04-20 16:01 | -29.99590 | 18.69817 | 31041 ft | 543 kts | 175° |
| 2026-04-20 16:01 | -30.06948 | 18.71772 | 31041 ft | 542 kts | 175° |
| 2026-04-20 16:02 | -30.14299 | 18.73727 | 31040 ft | 542 kts | 175° |
| 2026-04-20 16:02 | -30.21659 | 18.75690 | 31053 ft | 543 kts | 175° |
| 2026-04-20 16:03 | -30.29021 | 18.77652 | 31049 ft | 543 kts | 175° |
| 2026-04-20 16:03 | -30.36381 | 18.79614 | 31044 ft | 543 kts | 175° |
| 2026-04-20 16:04 | -30.43693 | 18.81574 | 31070 ft | 544 kts | 175° |
| 2026-04-20 16:04 | -30.51074 | 18.83553 | 31060 ft | 544 kts | 175° |
| 2026-04-20 16:05 | -30.58452 | 18.85534 | 31061 ft | 544 kts | 175° |
| 2026-04-20 16:05 | -30.65828 | 18.87517 | 31064 ft | 544 kts | 175° |
| 2026-04-20 16:06 | -30.73226 | 18.89510 | 31070 ft | 546 kts | 175° |
| 2026-04-20 16:06 | -30.80631 | 18.91507 | 31066 ft | 547 kts | 175° |
| 2026-04-20 16:07 | -30.88044 | 18.93510 | 31073 ft | 547 kts | 175° |
| 2026-04-20 16:07 | -30.95457 | 18.95518 | 31094 ft | 548 kts | 175° |
| 2026-04-20 16:08 | -31.02894 | 18.97533 | 31073 ft | 549 kts | 175° |
| 2026-04-20 16:08 | -31.10340 | 18.99554 | 31074 ft | 549 kts | 175° |
| 2026-04-20 16:09 | -31.17765 | 19.01575 | 31115 ft | 549 kts | 175° |
| 2026-04-20 16:09 | -31.25219 | 19.03608 | 31092 ft | 550 kts | 176° |
| 2026-04-20 16:10 | -31.32680 | 19.05645 | 31075 ft | 551 kts | 176° |
| 2026-04-20 16:10 | -31.40152 | 19.07152 | 31076 ft | 539 kts | 184° |
| 2026-04-20 16:11 | -31.47590 | 19.07700 | 31102 ft | 534 kts | 187° |
| 2026-04-20 16:11 | -31.55014 | 19.08071 | 31091 ft | 534 kts | 187° |
| 2026-04-20 16:12 | -31.62437 | 19.08457 | 31082 ft | 534 kts | 187° |
| 2026-04-20 16:12 | -31.69869 | 19.08864 | 31123 ft | 535 kts | 187° |
| 2026-04-20 16:13 | -31.77300 | 19.09274 | 31089 ft | 534 kts | 187° |
| 2026-04-20 16:13 | -31.84670 | 19.09691 | 31095 ft | 534 kts | 187° |
| 2026-04-20 16:14 | -31.92088 | 19.10110 | 31091 ft | 534 kts | 187° |
| 2026-04-20 16:14 | -31.99501 | 19.10521 | 31108 ft | 532 kts | 186° |
| 2026-04-20 16:15 | -32.06881 | 19.10947 | 31093 ft | 531 kts | 186° |
| 2026-04-20 16:15 | -32.14262 | 19.11373 | 31096 ft | 531 kts | 186° |
| 2026-04-20 16:16 | -32.21640 | 19.11793 | 31127 ft | 530 kts | 185° |
| 2026-04-20 16:16 | -32.28995 | 19.12201 | 31081 ft | 530 kts | 185° |
| 2026-04-20 16:17 | -32.36358 | 19.12614 | 31085 ft | 530 kts | 185° |
| 2026-04-20 16:17 | -32.43722 | 19.13029 | 31090 ft | 530 kts | 185° |
| 2026-04-20 16:18 | -32.51067 | 19.13453 | 30893 ft | 523 kts | 185° |
| 2026-04-20 16:18 | -32.54686 | 19.13665 | 30653 ft | 519 kts | 185° |
| 2026-04-20 16:18 | -32.58290 | 19.13871 | 30417 ft | 519 kts | 185° |
| 2026-04-20 16:19 | -32.61897 | 19.14076 | 30174 ft | 519 kts | 185° |
| 2026-04-20 16:19 | -32.65504 | 19.14280 | 29910 ft | 519 kts | 185° |
| 2026-04-20 16:19 | -32.69111 | 19.14485 | 29622 ft | 519 kts | 185° |
| 2026-04-20 16:19 | -32.72722 | 19.14689 | 29366 ft | 519 kts | 184° |
| 2026-04-20 16:20 | -32.76309 | 19.14888 | 29115 ft | 516 kts | 184° |
| 2026-04-20 16:20 | -32.79883 | 19.15100 | 28833 ft | 512 kts | 184° |
| 2026-04-20 16:20 | -32.83394 | 19.15306 | 28562 ft | 510 kts | 184° |
| 2026-04-20 16:20 | -32.86968 | 19.15514 | 28282 ft | 507 kts | 183° |
| 2026-04-20 16:21 | -32.90436 | 19.15716 | 28029 ft | 504 kts | 183° |
| 2026-04-20 16:21 | -32.93936 | 19.15918 | 27752 ft | 502 kts | 183° |
| 2026-04-20 16:21 | -32.97417 | 19.16117 | 27518 ft | 500 kts | 183° |
| 2026-04-20 16:21 | -33.00875 | 19.16311 | 27209 ft | 495 kts | 182° |
| 2026-04-20 16:22 | -33.04303 | 19.16511 | 26855 ft | 491 kts | 182° |
| 2026-04-20 16:22 | -33.07699 | 19.16711 | 26401 ft | 487 kts | 182° |
| 2026-04-20 16:22 | -33.11068 | 19.16909 | 25894 ft | 482 kts | 182° |
| 2026-04-20 16:22 | -33.14402 | 19.17106 | 25486 ft | 475 kts | 182° |
| 2026-04-20 16:23 | -33.17649 | 19.17299 | 25334 ft | 460 kts | 182° |
| 2026-04-20 16:23 | -33.20824 | 19.17488 | 25182 ft | 447 kts | 182° |
| 2026-04-20 16:23 | -33.23880 | 19.17666 | 24990 ft | 436 kts | 182° |
| 2026-04-20 16:23 | -33.26874 | 19.17840 | 24841 ft | 423 kts | 182° |
| 2026-04-20 16:24 | -33.29765 | 19.18010 | 24747 ft | 410 kts | 182° |
| 2026-04-20 16:24 | -33.32568 | 19.18174 | 24638 ft | 397 kts | 182° |
| 2026-04-20 16:24 | -33.35286 | 19.18333 | 24530 ft | 385 kts | 182° |
| 2026-04-20 16:24 | -33.37926 | 19.18487 | 24426 ft | 373 kts | 183° |
| 2026-04-20 16:25 | -33.40446 | 19.18301 | 24268 ft | 352 kts | 201° |
| 2026-04-20 16:25 | -33.42591 | 19.17107 | 24057 ft | 335 kts | 223° |
| 2026-04-20 16:25 | -33.44256 | 19.15201 | 23689 ft | 330 kts | 232° |
| 2026-04-20 16:25 | -33.45784 | 19.13200 | 23277 ft | 328 kts | 232° |
| 2026-04-20 16:26 | -33.47356 | 19.11152 | 22920 ft | 326 kts | 232° |
| 2026-04-20 16:26 | -33.48869 | 19.09197 | 22597 ft | 323 kts | 232° |
| 2026-04-20 16:26 | -33.50398 | 19.07236 | 22253 ft | 319 kts | 232° |
| 2026-04-20 16:26 | -33.51930 | 19.05280 | 21923 ft | 316 kts | 232° |
| 2026-04-20 16:27 | -33.53407 | 19.03395 | 21599 ft | 313 kts | 232° |
| 2026-04-20 16:27 | -33.54891 | 19.01502 | 21288 ft | 308 kts | 232° |
| 2026-04-20 16:27 | -33.56332 | 18.99669 | 21259 ft | 295 kts | 232° |
| 2026-04-20 16:27 | -33.57712 | 18.97913 | 21215 ft | 285 kts | 232° |
| 2026-04-20 16:28 | -33.59062 | 18.96187 | 20974 ft | 284 kts | 232° |
| 2026-04-20 16:28 | -33.60409 | 18.94462 | 20609 ft | 281 kts | 232° |
| 2026-04-20 16:28 | -33.61769 | 18.92716 | 20305 ft | 292 kts | 232° |
| 2026-04-20 16:28 | -33.63162 | 18.90930 | 20023 ft | 293 kts | 232° |
| 2026-04-20 16:29 | -33.64556 | 18.89148 | 19685 ft | 292 kts | 232° |
| 2026-04-20 16:29 | -33.65943 | 18.87376 | 19366 ft | 290 kts | 232° |
| 2026-04-20 16:29 | -33.67317 | 18.85618 | 19041 ft | 288 kts | 232° |
| 2026-04-20 16:29 | -33.68682 | 18.83870 | 18721 ft | 286 kts | 232° |
| 2026-04-20 16:30 | -33.70041 | 18.82128 | 18413 ft | 284 kts | 232° |
| 2026-04-20 16:30 | -33.71389 | 18.80398 | 18062 ft | 282 kts | 232° |
| 2026-04-20 16:30 | -33.72724 | 18.78686 | 17729 ft | 279 kts | 232° |
| 2026-04-20 16:30 | -33.74045 | 18.76990 | 17419 ft | 276 kts | 232° |
| 2026-04-20 16:31 | -33.75349 | 18.75314 | 17109 ft | 273 kts | 232° |
| 2026-04-20 16:31 | -33.76640 | 18.73655 | 16819 ft | 270 kts | 232° |
| 2026-04-20 16:31 | -33.77922 | 18.72008 | 16527 ft | 268 kts | 232° |
| 2026-04-20 16:31 | -33.79314 | 18.70505 | 16181 ft | 274 kts | 215° |
| 2026-04-20 16:32 | -33.81162 | 18.69813 | 15863 ft | 287 kts | 189° |
| 2026-04-20 16:32 | -33.83171 | 18.70133 | 15548 ft | 295 kts | 172° |
| 2026-04-20 16:32 | -33.85153 | 18.70783 | 15257 ft | 295 kts | 170° |
| 2026-04-20 16:32 | -33.87124 | 18.71450 | 14964 ft | 294 kts | 170° |
| 2026-04-20 16:33 | -33.89090 | 18.72101 | 14660 ft | 292 kts | 171° |
| 2026-04-20 16:33 | -33.91019 | 18.72726 | 14375 ft | 291 kts | 171° |
| 2026-04-20 16:33 | -33.92973 | 18.73353 | 14068 ft | 289 kts | 171° |
| 2026-04-20 16:33 | -33.94914 | 18.73972 | 13769 ft | 289 kts | 171° |
| 2026-04-20 16:34 | -33.96855 | 18.74589 | 13471 ft | 288 kts | 171° |
| 2026-04-20 16:34 | -33.98793 | 18.75206 | 13173 ft | 287 kts | 171° |
| 2026-04-20 16:34 | -34.00719 | 18.75821 | 12886 ft | 286 kts | 171° |
| 2026-04-20 16:34 | -34.02646 | 18.76435 | 12597 ft | 286 kts | 171° |
| 2026-04-20 16:35 | -34.04561 | 18.77047 | 12300 ft | 284 kts | 171° |
| 2026-04-20 16:35 | -34.06465 | 18.77656 | 11957 ft | 282 kts | 171° |
| 2026-04-20 16:35 | -34.08371 | 18.77881 | 11493 ft | 271 kts | 198° |
| 2026-04-20 16:35 | -34.10000 | 18.76935 | 11075 ft | 257 kts | 227° |
| 2026-04-20 16:36 | -34.11004 | 18.75220 | 10618 ft | 248 kts | 253° |
| 2026-04-20 16:36 | -34.11229 | 18.73188 | 10020 ft | 244 kts | 278° |
| 2026-04-20 16:36 | -34.10942 | 18.71883 | 9639 ft | 243 kts | 292° |
| 2026-04-20 16:36 | -34.10241 | 18.70049 | 9138 ft | 238 kts | 293° |
| 2026-04-20 16:37 | -34.09547 | 18.68257 | 8642 ft | 233 kts | 293° |
| 2026-04-20 16:37 | -34.08881 | 18.66532 | 8368 ft | 220 kts | 293° |
| 2026-04-20 16:37 | -34.08247 | 18.64887 | 8107 ft | 213 kts | 293° |
| 2026-04-20 16:37 | -34.07643 | 18.63278 | 7932 ft | 208 kts | 288° |
| 2026-04-20 16:38 | -34.07523 | 18.61561 | 7623 ft | 208 kts | 260° |
| 2026-04-20 16:38 | -34.08108 | 18.59954 | 7327 ft | 214 kts | 236° |
| 2026-04-20 16:38 | -34.09253 | 18.58765 | 7009 ft | 222 kts | 219° |
| 2026-04-20 16:38 | -34.10587 | 18.57801 | 6685 ft | 226 kts | 212° |
| 2026-04-20 16:39 | -34.12140 | 18.57331 | 6350 ft | 239 kts | 182° |
| 2026-04-20 16:39 | -34.13759 | 18.57894 | 6011 ft | 251 kts | 150° |
| 2026-04-20 16:39 | -34.14959 | 18.59432 | 5657 ft | 257 kts | 115° |
| 2026-04-20 16:39 | -34.15323 | 18.61500 | 5382 ft | 252 kts | 81° |
| 2026-04-20 16:40 | -34.14754 | 18.63453 | 4994 ft | 245 kts | 47° |
| 2026-04-20 16:40 | -34.13506 | 18.64731 | 4694 ft | 230 kts | 16° |
| 2026-04-20 16:40 | -34.11970 | 18.65035 | 4128 ft | 226 kts | 345° |
| 2026-04-20 16:40 | -34.10432 | 18.64618 | 3775 ft | 226 kts | 340° |
| 2026-04-20 16:41 | -34.08922 | 18.64135 | 3497 ft | 222 kts | 339° |
| 2026-04-20 16:41 | -34.07478 | 18.63665 | 2975 ft | 210 kts | 340° |
| 2026-04-20 16:41 | -34.06071 | 18.63212 | 2295 ft | 206 kts | 341° |
| 2026-04-20 16:41 | -34.04758 | 18.62798 | 2205 ft | 181 kts | 341° |
| 2026-04-20 16:42 | -34.03620 | 18.62440 | 2205 ft | 167 kts | 341° |
| 2026-04-20 16:42 | -34.02486 | 18.62073 | 2237 ft | 173 kts | 341° |
| 2026-04-20 16:42 | -34.01233 | 18.61670 | 2416 ft | 198 kts | 342° |
| 2026-04-20 16:42 | -33.99879 | 18.61243 | 2858 ft | 197 kts | 338° |
| 2026-04-20 16:43 | -33.98720 | 18.60468 | 3066 ft | 190 kts | 317° |
| 2026-04-20 16:43 | -33.97918 | 18.59265 | 3020 ft | 186 kts | 289° |
| 2026-04-20 16:43 | -33.97912 | 18.57761 | 3006 ft | 183 kts | 254° |
| 2026-04-20 16:43 | -33.98460 | 18.56342 | 3033 ft | 190 kts | 245° |
| 2026-04-20 16:44 | -33.99126 | 18.54955 | 3029 ft | 191 kts | 244° |
| 2026-04-20 16:44 | -33.99834 | 18.53594 | 3010 ft | 192 kts | 236° |
| 2026-04-20 16:44 | -34.00936 | 18.52658 | 3000 ft | 205 kts | 199° |
| 2026-04-20 16:44 | -34.02400 | 18.52671 | 3036 ft | 218 kts | 171° |
| 2026-04-20 16:45 | -34.03864 | 18.53193 | 3037 ft | 220 kts | 165° |
| 2026-04-20 16:45 | -34.05306 | 18.53814 | 3028 ft | 220 kts | 166° |
| 2026-04-20 16:45 | -34.06770 | 18.54299 | 3027 ft | 218 kts | 172° |
| 2026-04-20 16:45 | -34.08249 | 18.54694 | 3031 ft | 219 kts | 173° |
| 2026-04-20 16:46 | -34.09742 | 18.55092 | 3030 ft | 220 kts | 173° |
| 2026-04-20 16:46 | -34.11225 | 18.55483 | 3022 ft | 216 kts | 173° |
| 2026-04-20 16:46 | -34.12659 | 18.55861 | 3000 ft | 205 kts | 173° |
| 2026-04-20 16:46 | -34.14018 | 18.56226 | 2999 ft | 198 kts | 173° |
| 2026-04-20 16:47 | -34.15374 | 18.56594 | 3011 ft | 198 kts | 173° |
| 2026-04-20 16:47 | -34.16720 | 18.56954 | 3024 ft | 198 kts | 173° |
| 2026-04-20 16:47 | -34.18064 | 18.57306 | 3021 ft | 198 kts | 173° |
| 2026-04-20 16:47 | -34.19409 | 18.57654 | 3017 ft | 197 kts | 173° |
| 2026-04-20 16:48 | -34.20727 | 18.58162 | 2989 ft | 206 kts | 144° |
| 2026-04-20 16:48 | -34.21522 | 18.59590 | 3037 ft | 212 kts | 96° |
| 2026-04-20 16:48 | -34.21256 | 18.61269 | 3074 ft | 207 kts | 50° |
| 2026-04-20 16:48 | -34.20214 | 18.62495 | 3077 ft | 211 kts | 32° |
| 2026-04-20 16:49 | -34.19059 | 18.63592 | 3014 ft | 209 kts | 32° |
| 2026-04-20 16:49 | -34.18005 | 18.64680 | 2924 ft | 188 kts | 34° |
| 2026-04-20 16:49 | -34.17112 | 18.65701 | 2885 ft | 165 kts | 34° |
| 2026-04-20 16:49 | -34.16204 | 18.66327 | 2879 ft | 142 kts | 354° |
| 2026-04-20 16:50 | -34.15229 | 18.66207 | 2933 ft | 143 kts | 341° |
| 2026-04-20 16:50 | -34.14258 | 18.65894 | 2941 ft | 146 kts | 337° |
| 2026-04-20 16:50 | -34.13292 | 18.65552 | 2929 ft | 147 kts | 337° |
| 2026-04-20 16:50 | -34.12305 | 18.65210 | 2862 ft | 147 kts | 338° |
| 2026-04-20 16:51 | -34.11317 | 18.64883 | 2765 ft | 147 kts | 338° |
| 2026-04-20 16:51 | -34.10332 | 18.64563 | 2559 ft | 146 kts | 339° |
| 2026-04-20 16:51 | -34.09348 | 18.64250 | 2366 ft | 146 kts | 339° |
| 2026-04-20 16:51 | -34.08367 | 18.63938 | 2157 ft | 145 kts | 339° |
| 2026-04-20 16:52 | -34.07391 | 18.63629 | 1951 ft | 145 kts | 339° |
| 2026-04-20 16:52 | -34.06418 | 18.63319 | 1769 ft | 145 kts | 340° |
| 2026-04-20 16:52 | -34.05443 | 18.63011 | 1547 ft | 145 kts | 340° |
| 2026-04-20 16:52 | -34.04472 | 18.62702 | 1370 ft | 144 kts | 341° |
| 2026-04-20 16:53 | -34.03503 | 18.62394 | 1160 ft | 143 kts | 342° |
| 2026-04-20 16:53 | -34.02539 | 18.62085 | 968 ft | 143 kts | 343° |
| 2026-04-20 16:53 | -34.01574 | 18.61780 | 785 ft | 144 kts | 344° |
| 2026-04-20 16:53 | -34.00615 | 18.61477 | 574 ft | 142 kts | 342° |
| 2026-04-20 16:54 | -33.99664 | 18.61172 | 365 ft | 139 kts | 343° |
| 2026-04-20 16:54 | -33.98740 | 18.60879 | 205 ft | 134 kts | 343° |
| 2026-04-20 16:54 | -33.97951 | 18.60627 | 162 ft | 90 kts | 345° |
| 2026-04-20 16:54 | -33.97563 | 18.60504 | 160 ft | 25 kts | 345° |
| 2026-04-20 16:55 | -33.97521 | 18.60490 | 160 ft | 7 kts | 345° |
| 2026-04-20 16:55 | -33.97403 | 18.60453 | 161 ft | 25 kts | 345° |
| 2026-04-20 16:55 | -33.97238 | 18.60399 | 162 ft | 22 kts | 342° |
| 2026-04-20 16:55 | -33.97123 | 18.60280 | 163 ft | 23 kts | 295° |
| 2026-04-20 16:56 | -33.97078 | 18.60105 | 163 ft | 17 kts | 284° |
| 2026-04-20 16:56 | -33.97043 | 18.59972 | 163 ft | 17 kts | 304° |
| 2026-04-20 16:56 | -33.96941 | 18.59902 | 163 ft | 13 kts | 346° |
| 2026-04-20 16:56 | -33.96904 | 18.59863 | 163 ft | 4 kts | 281° |
| 2026-04-20 16:57 | -33.96900 | 18.59829 | 163 ft | 2 kts | 275° |
| 2026-04-20 16:57 | -33.96900 | 18.59816 | 163 ft | 0 kts | 264° |
| 2026-04-20 16:58 | -33.96899 | 18.59811 | 163 ft | 0 kts | 255° |